Observation data for Throckmorton on 05/16/2018      Previous  Date  Next       Current Mesonet Observations  Soil Data  Daily Summary Page  Observations in Plain Language
KTH1 160500Z 32013KT 22/16 A3001 RMK A01 T02210159  RH  068%=      5-min Rain = 0
KTH1 160501Z 33009KT 22/16 A3001 RMK A01 T02220159  RH  067%=      5-min Rain = 0
KTH1 160502Z 33009KT 22/16 A3002 RMK A01 T02220159  RH  067%=      5-min Rain = 0
KTH1 160503Z 32010KT 22/16 A3002 RMK A01 T02230160  RH  067%=      5-min Rain = 0
KTH1 160504Z 32010KT 22/16 A3002 RMK A01 T02230158  RH  067%=      5-min Rain = 0
KTH1 160505Z 32012KT 22/16 A3002 RMK A01 T02230159  RH  067%=      5-min Rain = 0
KTH1 160506Z 32013KT 22/16 A3003 RMK A01 T02240159  RH  067%=      5-min Rain = 0
KTH1 160507Z 32014KT 22/16 A3003 RMK A01 T02240160  RH  067%=      5-min Rain = 0
KTH1 160508Z 32015KT 23/16 A3004 RMK A01 T02250160  RH  067%=      5-min Rain = 0
KTH1 160509Z 32017KT 23/16 A3004 RMK A01 T02250161  RH  067%=      5-min Rain = 0
KTH1 160510Z 32015G20KT 23/16 A3005 RMK A01 T02260161  RH  067%=      5-min Rain = 0
KTH1 160511Z 32014KT 23/16 A3005 RMK A01 T02270158  RH  065%=      5-min Rain = 0
KTH1 160512Z 32014KT 23/16 A3005 RMK A01 T02270159  RH  065%=      5-min Rain = 0
KTH1 160513Z 32014KT 23/16 A3005 RMK A01 T02270158  RH  065%=      5-min Rain = 0
KTH1 160514Z 32014KT 23/16 A3005 RMK A01 T02270157  RH  065%=      5-min Rain = 0
KTH1 160515Z 32014KT 23/16 A3005 RMK A01 T02270156  RH  064%=      5-min Rain = 0
KTH1 160516Z 32014G24KT 23/16 A3006 RMK A01 T02290158  RH  064%=      5-min Rain = 0
KTH1 160517Z 33020G27KT 23/16 A3006 RMK A01 T02300157  RH  063%=      5-min Rain = 0
KTH1 160518Z 32022G29KT 23/16 A3006 RMK A01 T02320157  RH  063%=      5-min Rain = 0
KTH1 160519Z 32022G27KT 23/16 A3006 RMK A01 T02320158  RH  063%=      5-min Rain = 0
KTH1 160520Z 33018G28KT 23/16 A3006 RMK A01 T02330159  RH  063%=      5-min Rain = 0
KTH1 160521Z 32017G26KT 23/16 A3006 RMK A01 T02330159  RH  063%=      5-min Rain = 0
KTH1 160522Z 32015G22KT 23/16 A3007 RMK A01 T02320160  RH  064%=      5-min Rain = 0
KTH1 160523Z 33020G26KT 23/16 A3007 RMK A01 T02310157  RH  063%=      5-min Rain = 0
KTH1 160524Z 33017G22KT 23/16 A3007 RMK A01 T02290156  RH  063%=      5-min Rain = 0
KTH1 160525Z 32016G23KT 23/16 A3007 RMK A01 T02290156  RH  063%=      5-min Rain = 0
KTH1 160526Z 32015G20KT 23/16 A3007 RMK A01 T02280157  RH  064%=      5-min Rain = 0
KTH1 160527Z 33014G19KT 23/16 A3007 RMK A01 T02270156  RH  064%=      5-min Rain = 0
KTH1 160528Z 32015KT 23/16 A3007 RMK A01 T02260156  RH  064%=      5-min Rain = 0
KTH1 160529Z 32014G20KT 23/16 A3007 RMK A01 T02260155  RH  064%=      5-min Rain = 0
KTH1 160530Z 32011KT 23/16 A3007 RMK A01 T02260156  RH  064%=      5-min Rain = 0
KTH1 160531Z 32014G19KT 23/16 A3007 RMK A01 T02250155  RH  065%=      5-min Rain = 0
KTH1 160532Z 32011G17KT 23/15 A3007 RMK A01 T02250154  RH  064%=      5-min Rain = 0
KTH1 160533Z 33013KT 23/16 A3007 RMK A01 T02250155  RH  065%=      5-min Rain = 0
KTH1 160534Z 33013KT 22/16 A3007 RMK A01 T02240155  RH  065%=      5-min Rain = 0
KTH1 160535Z 33013G21KT 22/15 A3007 RMK A01 T02240152  RH  064%=      5-min Rain = 0
KTH1 160536Z 33011KT 22/15 A3007 RMK A01 T02230153  RH  064%=      5-min Rain = 0
KTH1 160537Z 33010G15KT 22/15 A3007 RMK A01 T02230152  RH  064%=      5-min Rain = 0
KTH1 160538Z 34011G22KT 22/15 A3006 RMK A01 T02230153  RH  065%=      5-min Rain = 0
KTH1 160539Z 32012G18KT 22/15 A3006 RMK A01 T02220149  RH  063%=      5-min Rain = 0
KTH1 160540Z 33012G17KT 22/15 A3006 RMK A01 T02220149  RH  063%=      5-min Rain = 0
KTH1 160541Z 33011KT 22/15 A3006 RMK A01 T02210146  RH  062%=      5-min Rain = 0
KTH1 160542Z 33018KT 22/14 A3006 RMK A01 T02200144  RH  062%=      5-min Rain = 0
KTH1 160543Z 33011G16KT 22/14 A3006 RMK A01 T02200143  RH  062%=      5-min Rain = 0
KTH1 160544Z 33014G20KT 22/14 A3006 RMK A01 T02190142  RH  061%=      5-min Rain = 0
KTH1 160545Z 32011G17KT 22/14 A3005 RMK A01 T02190142  RH  061%=      5-min Rain = 0
KTH1 160546Z 33010KT 22/14 A3005 RMK A01 T02180142  RH  062%=      5-min Rain = 0
KTH1 160547Z 33011KT 22/14 A3005 RMK A01 T02180143  RH  062%=      5-min Rain = 0
KTH1 160548Z 33009KT 22/14 A3005 RMK A01 T02170141  RH  062%=      5-min Rain = 0
KTH1 160549Z 33010KT 22/14 A3005 RMK A01 T02160142  RH  063%=      5-min Rain = 0
KTH1 160550Z 34009KT 22/14 A3005 RMK A01 T02160141  RH  062%=      5-min Rain = 0
KTH1 160551Z 34009KT 22/14 A3004 RMK A01 T02150142  RH  063%=      5-min Rain = 0
KTH1 160552Z 34006KT 22/14 A3004 RMK A01 T02150143  RH  063%=      5-min Rain = 0
KTH1 160553Z 35009KT 21/14 A3004 RMK A01 T02140142  RH  063%=      5-min Rain = 0
KTH1 160554Z 33006KT 21/14 A3004 RMK A01 T02140141  RH  063%=      5-min Rain = 0
KTH1 160555Z 35008G13KT 21/14 A3004 RMK A01 T02140142  RH  064%=      5-min Rain = 0
KTH1 160556Z 34009G16KT 21/14 A3003 RMK A01 T02130140  RH  063%=      5-min Rain = 0
KTH1 160557Z 34008KT 21/14 A3003 RMK A01 T02130140  RH  063%=      5-min Rain = 0
KTH1 160558Z 00007KT 21/14 A3003 RMK A01 T02130140  RH  063%=      5-min Rain = 0
KTH1 160559Z 01004KT 21/14 A3003 RMK A01 T02120140  RH  064%=      5-min Rain = 0
KTH1 160600Z 36005KT 21/14 A3002 RMK A01 T02110140  RH  064%=      5-min Rain = 0
KTH1 160601Z 02005KT 21/14 A3002 RMK A01 T02100140  RH  064%=      5-min Rain = 0
KTH1 160602Z 35007KT 21/14 A3002 RMK A01 T02100140  RH  064%=      5-min Rain = 0
KTH1 160603Z 35006KT 21/14 A3002 RMK A01 T02090140  RH  064%=      5-min Rain = 0
KTH1 160604Z 35006KT 21/14 A3003 RMK A01 T02090141  RH  065%=      5-min Rain = 0
KTH1 160605Z 33007KT 21/14 A3003 RMK A01 T02090142  RH  065%=      5-min Rain = 0
KTH1 160606Z 34006KT 21/14 A3003 RMK A01 T02080142  RH  066%=      5-min Rain = 0
KTH1 160607Z 34006KT 21/14 A3003 RMK A01 T02080144  RH  066%=      5-min Rain = 0
KTH1 160608Z 34006KT 21/14 A3002 RMK A01 T02080143  RH  066%=      5-min Rain = 0
KTH1 160609Z 34008KT 21/14 A3002 RMK A01 T02080142  RH  066%=      5-min Rain = 0
KTH1 160610Z 33006KT 21/14 A3002 RMK A01 T02070140  RH  065%=      5-min Rain = 0
KTH1 160611Z 33006KT 21/14 A3002 RMK A01 T02070141  RH  066%=      5-min Rain = 0
KTH1 160612Z 33008KT 21/14 A3002 RMK A01 T02070141  RH  066%=      5-min Rain = 0
KTH1 160613Z 33009KT 21/14 A3002 RMK A01 T02070141  RH  066%=      5-min Rain = 0
KTH1 160614Z 32008G14KT 21/14 A3002 RMK A01 T02080141  RH  065%=      5-min Rain = 0
KTH1 160615Z 32008KT 21/14 A3002 RMK A01 T02070141  RH  066%=      5-min Rain = 0
KTH1 160616Z 33008KT 21/14 A3002 RMK A01 T02080140  RH  065%=      5-min Rain = 0
KTH1 160617Z 33007KT 21/14 A3002 RMK A01 T02080142  RH  066%=      5-min Rain = 0
KTH1 160618Z 32008KT 21/14 A3002 RMK A01 T02080141  RH  066%=      5-min Rain = 0
KTH1 160619Z 33006KT 21/14 A3002 RMK A01 T02080142  RH  066%=      5-min Rain = 0
KTH1 160620Z 32007KT 21/14 A3001 RMK A01 T02070141  RH  066%=      5-min Rain = 0
KTH1 160621Z 31008KT 21/14 A3001 RMK A01 T02070141  RH  066%=      5-min Rain = 0
KTH1 160622Z 32007KT 21/14 A3001 RMK A01 T02070143  RH  066%=      5-min Rain = 0
KTH1 160623Z 32008KT 21/14 A3001 RMK A01 T02070144  RH  067%=      5-min Rain = 0
KTH1 160624Z 33005G11KT 21/14 A3001 RMK A01 T02070144  RH  067%=      5-min Rain = 0
KTH1 160625Z 33006KT 21/14 A3001 RMK A01 T02070141  RH  066%=      5-min Rain = 0
KTH1 160626Z 34008KT 21/14 A30 RMK A01 T02060141  RH  066%=      5-min Rain = 0
KTH1 160627Z 33009KT 21/14 A30 RMK A01 T02060141  RH  066%=      5-min Rain = 0
KTH1 160628Z 33008KT 21/14 A3001 RMK A01 T02060142  RH  066%=      5-min Rain = 0
KTH1 160629Z 35007KT 21/14 A30 RMK A01 T02070141  RH  066%=      5-min Rain = 0
KTH1 160630Z 33005KT 21/14 A30 RMK A01 T02070140  RH  065%=      5-min Rain = 0
KTH1 160631Z 34003KT 21/14 A30 RMK A01 T02070141  RH  066%=      5-min Rain = 0
KTH1 160632Z 33004KT 21/14 A30 RMK A01 T02070142  RH  066%=      5-min Rain = 0
KTH1 160633Z 33005KT 21/14 A2999 RMK A01 T02070140  RH  066%=      5-min Rain = 0
KTH1 160634Z 34004KT 21/14 A2999 RMK A01 T02060140  RH  066%=      5-min Rain = 0
KTH1 160635Z 34004KT 21/14 A2999 RMK A01 T02060141  RH  066%=      5-min Rain = 0
KTH1 160636Z 33004KT 21/14 A2998 RMK A01 T02060140  RH  066%=      5-min Rain = 0
KTH1 160637Z 33003KT 21/14 A2998 RMK A01 T02060140  RH  066%=      5-min Rain = 0
KTH1 160638Z 00003KT 21/14 A2998 RMK A01 T02050141  RH  067%=      5-min Rain = 0
KTH1 160639Z 36002KT 21/14 A2997 RMK A01 T02050140  RH  066%=      5-min Rain = 0
KTH1 160640Z 01002KT 20/14 A2997 RMK A01 T02040140  RH  067%=      5-min Rain = 0
KTH1 160641Z 04001KT 20/14 A2996 RMK A01 T02040140  RH  067%=      5-min Rain = 0
KTH1 160642Z 05001KT 20/14 A2996 RMK A01 T02040140  RH  067%=      5-min Rain = 0
KTH1 160643Z 08002KT 20/14 A2995 RMK A01 T02030139  RH  066%=      5-min Rain = 0
KTH1 160644Z 11004KT 20/14 A2994 RMK A01 T02030140  RH  067%=      5-min Rain = 0
KTH1 160645Z 12005KT 20/14 A2994 RMK A01 T02030141  RH  068%=      5-min Rain = 0
KTH1 160646Z 13007KT 20/14 A2993 RMK A01 T02020142  RH  068%=      5-min Rain = 0
KTH1 160647Z 13008KT 20/14 A2992 RMK A01 T02010142  RH  069%=      5-min Rain = 0
KTH1 160648Z 13008KT 20/14 A2992 RMK A01 T02000142  RH  069%=      5-min Rain = 0
KTH1 160649Z 12008KT 20/14 A2992 RMK A01 T01990141  RH  069%=      5-min Rain = 0
KTH1 160650Z 12008KT 20/14 A2992 RMK A01 T01990140  RH  069%=      5-min Rain = 0
KTH1 160651Z 12007KT 20/14 A2991 RMK A01 T01990140  RH  069%=      5-min Rain = 0
KTH1 160652Z 12007KT 20/14 A2991 RMK A01 T01990141  RH  069%=      5-min Rain = 0
KTH1 160653Z 11006KT 20/14 A2991 RMK A01 T01990140  RH  069%=      5-min Rain = 0
KTH1 160654Z 10005KT 20/14 A2991 RMK A01 T01980140  RH  069%=      5-min Rain = 0
KTH1 160655Z 10005KT 20/14 A2992 RMK A01 T01990141  RH  069%=      5-min Rain = 0
KTH1 160656Z 12003KT 20/14 A2992 RMK A01 T01990141  RH  069%=      5-min Rain = 0
KTH1 160657Z 14003KT 20/14 A2992 RMK A01 T01980142  RH  070%=      5-min Rain = 0
KTH1 160658Z 17003KT 20/14 A2993 RMK A01 T01980142  RH  070%=      5-min Rain = 0
KTH1 160659Z 21003KT 20/14 A2993 RMK A01 T01980141  RH  070%=      5-min Rain = 0
KTH1 160700Z 25005KT 20/14 A2994 RMK A01 T01980143  RH  071%=      5-min Rain = 0
KTH1 160701Z 26006KT 20/15 A2994 RMK A01 T01980146  RH  072%=      5-min Rain = 0
KTH1 160702Z 27005KT 20/15 A2994 RMK A01 T01990148  RH  073%=      5-min Rain = 0
KTH1 160703Z 27005KT 20/15 A2995 RMK A01 T01990151  RH  074%=      5-min Rain = 0
KTH1 160704Z 28003KT 20/15 A2995 RMK A01 T02000153  RH  074%=      5-min Rain = 0
KTH1 160705Z 01001KT 20/15 A2994 RMK A01 T02010151  RH  073%=      5-min Rain = 0
KTH1 160706Z 06001KT 20/15 A2994 RMK A01 T02020147  RH  071%=      5-min Rain = 0
KTH1 160707Z 10001KT 20/14 A2994 RMK A01 T02030144  RH  069%=      5-min Rain = 0
KTH1 160708Z 10003KT 20/15 A2994 RMK A01 T02030146  RH  070%=      5-min Rain = 0
KTH1 160709Z 10003KT 20/15 A2994 RMK A01 T02030149  RH  071%=      5-min Rain = 0
KTH1 160710Z 10003KT 20/15 A2994 RMK A01 T02030150  RH  072%=      5-min Rain = 0
KTH1 160711Z 11003KT 20/15 A2994 RMK A01 T02020150  RH  072%=      5-min Rain = 0
KTH1 160712Z 10003KT 20/15 A2994 RMK A01 T02010147  RH  071%=      5-min Rain = 0
KTH1 160713Z 10003KT 20/15 A2994 RMK A01 T02010146  RH  071%=      5-min Rain = 0
KTH1 160714Z 08002KT 20/15 A2994 RMK A01 T02000146  RH  071%=      5-min Rain = 0
KTH1 160715Z 06002KT 20/15 A2994 RMK A01 T01990146  RH  071%=      5-min Rain = 0
KTH1 160716Z 06002KT 20/15 A2994 RMK A01 T01980145  RH  071%=      5-min Rain = 0
KTH1 160717Z 07002KT 20/15 A2994 RMK A01 T01970145  RH  072%=      5-min Rain = 0
KTH1 160718Z 09002KT 20/15 A2994 RMK A01 T01970146  RH  072%=      5-min Rain = 0
KTH1 160719Z 13003KT 20/15 A2994 RMK A01 T01960145  RH  072%=      5-min Rain = 0
KTH1 160720Z 14004KT 20/15 A2993 RMK A01 T01960145  RH  072%=      5-min Rain = 0
KTH1 160721Z 14004KT 20/15 A2993 RMK A01 T01950145  RH  073%=      5-min Rain = 0
KTH1 160722Z 15004KT 20/15 A2993 RMK A01 T01950145  RH  073%=      5-min Rain = 0
KTH1 160723Z 15003KT 19/15 A2993 RMK A01 T01940146  RH  074%=      5-min Rain = 0
KTH1 160724Z 15002KT 19/15 A2993 RMK A01 T01930145  RH  074%=      5-min Rain = 0
KTH1 160725Z 16003KT 19/14 A2993 RMK A01 T01930144  RH  074%=      5-min Rain = 0
KTH1 160726Z 17003KT 19/14 A2993 RMK A01 T01920144  RH  073%=      5-min Rain = 0
KTH1 160727Z 17004KT 19/14 A2993 RMK A01 T01920144  RH  073%=      5-min Rain = 0
KTH1 160728Z 18004KT 19/14 A2993 RMK A01 T01920143  RH  074%=      5-min Rain = 0
KTH1 160729Z 17004KT 19/14 A2993 RMK A01 T01910144  RH  074%=      5-min Rain = 0
KTH1 160730Z 17004KT 19/14 A2993 RMK A01 T01910144  RH  074%=      5-min Rain = 0
KTH1 160731Z 17004KT 19/14 A2993 RMK A01 T01910144  RH  074%=      5-min Rain = 0
KTH1 160732Z 17004KT 19/14 A2993 RMK A01 T01910143  RH  074%=      5-min Rain = 0
KTH1 160733Z 18005KT 19/14 A2993 RMK A01 T01910144  RH  074%=      5-min Rain = 0
KTH1 160734Z 18005KT 19/14 A2993 RMK A01 T01910144  RH  074%=      5-min Rain = 0
KTH1 160735Z 18005KT 19/14 A2993 RMK A01 T01900144  RH  075%=      5-min Rain = 0
KTH1 160736Z 18005KT 19/14 A2993 RMK A01 T01900144  RH  075%=      5-min Rain = 0
KTH1 160737Z 18006KT 19/14 A2993 RMK A01 T01900144  RH  075%=      5-min Rain = 0
KTH1 160738Z 18005KT 19/14 A2993 RMK A01 T01900144  RH  075%=      5-min Rain = 0
KTH1 160739Z 18005KT 19/14 A2993 RMK A01 T01890144  RH  075%=      5-min Rain = 0
KTH1 160740Z 18005KT 19/14 A2993 RMK A01 T01890144  RH  075%=      5-min Rain = 0
KTH1 160741Z 18004KT 19/15 A2993 RMK A01 T01890145  RH  075%=      5-min Rain = 0
KTH1 160742Z 17003KT 19/15 A2993 RMK A01 T01890145  RH  076%=      5-min Rain = 0
KTH1 160743Z 16003KT 19/15 A2993 RMK A01 T01890145  RH  076%=      5-min Rain = 0
KTH1 160744Z 18003KT 19/15 A2993 RMK A01 T01880145  RH  076%=      5-min Rain = 0
KTH1 160745Z 19003KT 19/15 A2992 RMK A01 T01880145  RH  076%=      5-min Rain = 0
KTH1 160746Z 18004KT 19/15 A2992 RMK A01 T01880146  RH  076%=      5-min Rain = 0
KTH1 160747Z 18004KT 19/15 A2992 RMK A01 T01870145  RH  077%=      5-min Rain = 0
KTH1 160748Z 17003KT 19/15 A2992 RMK A01 T01870145  RH  077%=      5-min Rain = 0
KTH1 160749Z 16003KT 19/15 A2992 RMK A01 T01860145  RH  077%=      5-min Rain = 0
KTH1 160750Z 17003KT 19/14 A2992 RMK A01 T01860144  RH  076%=      5-min Rain = 0
KTH1 160751Z 19003KT 19/14 A2992 RMK A01 T01860144  RH  076%=      5-min Rain = 0
KTH1 160752Z 19004KT 19/14 A2992 RMK A01 T01860144  RH  076%=      5-min Rain = 0
KTH1 160753Z 19005KT 19/15 A2992 RMK A01 T01860145  RH  077%=      5-min Rain = 0
KTH1 160754Z 19005KT 19/15 A2992 RMK A01 T01850145  RH  077%=      5-min Rain = 0
KTH1 160755Z 19005KT 19/14 A2992 RMK A01 T01850144  RH  077%=      5-min Rain = 0
KTH1 160756Z 19004KT 18/14 A2992 RMK A01 T01840144  RH  077%=      5-min Rain = 0
KTH1 160757Z 21003KT 19/14 A2992 RMK A01 T01850144  RH  077%=      5-min Rain = 0
KTH1 160758Z 22003KT 18/14 A2992 RMK A01 T01840144  RH  077%=      5-min Rain = 0
KTH1 160759Z 21003KT 18/14 A2992 RMK A01 T01840144  RH  077%=      5-min Rain = 0
KTH1 160800Z 21003KT 18/14 A2992 RMK A01 T01840144  RH  077%=      5-min Rain = 0
KTH1 160801Z 22004KT 18/14 A2992 RMK A01 T01840144  RH  078%=      5-min Rain = 0
KTH1 160802Z 22004KT 18/14 A2992 RMK A01 T01830144  RH  078%=      5-min Rain = 0
KTH1 160803Z 23005KT 18/14 A2992 RMK A01 T01820144  RH  078%=      5-min Rain = 0
KTH1 160804Z 22005KT 18/15 A2992 RMK A01 T01820145  RH  079%=      5-min Rain = 0
KTH1 160805Z 22005KT 18/15 A2992 RMK A01 T01820146  RH  079%=      5-min Rain = 0
KTH1 160806Z 22005KT 18/15 A2992 RMK A01 T01810146  RH  080%=      5-min Rain = 0
KTH1 160807Z 21005KT 18/15 A2992 RMK A01 T01820146  RH  080%=      5-min Rain = 0
KTH1 160808Z 21005KT 18/15 A2992 RMK A01 T01810146  RH  080%=      5-min Rain = 0
KTH1 160809Z 20005KT 18/15 A2992 RMK A01 T01820147  RH  080%=      5-min Rain = 0
KTH1 160810Z 19005KT 18/15 A2992 RMK A01 T01810146  RH  080%=      5-min Rain = 0
KTH1 160811Z 19005KT 18/15 A2992 RMK A01 T01810147  RH  080%=      5-min Rain = 0
KTH1 160812Z 19005KT 18/15 A2992 RMK A01 T01810146  RH  080%=      5-min Rain = 0
KTH1 160813Z 19005KT 18/15 A2992 RMK A01 T01800145  RH  080%=      5-min Rain = 0
KTH1 160814Z 20005KT 18/15 A2992 RMK A01 T01800145  RH  080%=      5-min Rain = 0
KTH1 160815Z 20005KT 18/15 A2992 RMK A01 T01800145  RH  080%=      5-min Rain = 0
KTH1 160816Z 20004KT 18/15 A2992 RMK A01 T01800145  RH  080%=      5-min Rain = 0
KTH1 160817Z 20004KT 18/15 A2992 RMK A01 T01790145  RH  080%=      5-min Rain = 0
KTH1 160818Z 20004KT 18/15 A2992 RMK A01 T01790145  RH  080%=      5-min Rain = 0
KTH1 160819Z 22002KT 18/15 A2992 RMK A01 T01790145  RH  080%=      5-min Rain = 0
KTH1 160820Z 23002KT 18/15 A2992 RMK A01 T01790145  RH  081%=      5-min Rain = 0
KTH1 160821Z 23002KT 18/15 A2992 RMK A01 T01790146  RH  081%=      5-min Rain = 0
KTH1 160822Z 24002KT 18/15 A2992 RMK A01 T01790147  RH  082%=      5-min Rain = 0
KTH1 160823Z 21001KT 18/15 A2993 RMK A01 T01790147  RH  081%=      5-min Rain = 0
KTH1 160824Z 23001KT 18/15 A2993 RMK A01 T01800147  RH  081%=      5-min Rain = 0
KTH1 160825Z 21001KT 18/15 A2993 RMK A01 T01800147  RH  081%=      5-min Rain = 0
KTH1 160826Z 21003KT 18/15 A2993 RMK A01 T01800146  RH  081%=      5-min Rain = 0
KTH1 160827Z 22003KT 18/15 A2993 RMK A01 T01800146  RH  081%=      5-min Rain = 0
KTH1 160828Z 23003KT 18/15 A2993 RMK A01 T01800146  RH  080%=      5-min Rain = 0
KTH1 160829Z 23004KT 18/15 A2993 RMK A01 T01800146  RH  081%=      5-min Rain = 0
KTH1 160830Z 23005KT 18/15 A2993 RMK A01 T01790146  RH  081%=      5-min Rain = 0
KTH1 160831Z 23005KT 18/15 A2994 RMK A01 T01790147  RH  082%=      5-min Rain = 0
KTH1 160832Z 23004KT 18/15 A2994 RMK A01 T01780148  RH  082%=      5-min Rain = 0
KTH1 160833Z 23004KT 18/15 A2994 RMK A01 T01780149  RH  083%=      5-min Rain = 0
KTH1 160834Z 23004KT 18/15 A2994 RMK A01 T01780149  RH  083%=      5-min Rain = 0
KTH1 160835Z 23003KT 18/15 A2994 RMK A01 T01780150  RH  084%=      5-min Rain = 0
KTH1 160836Z 22003KT 18/15 A2994 RMK A01 T01770149  RH  083%=      5-min Rain = 0
KTH1 160837Z 22004KT 18/15 A2994 RMK A01 T01770149  RH  084%=      5-min Rain = 0
KTH1 160838Z 23005KT 18/15 A2994 RMK A01 T01770149  RH  083%=      5-min Rain = 0
KTH1 160839Z 23005KT 18/15 A2994 RMK A01 T01770149  RH  084%=      5-min Rain = 0
KTH1 160840Z 23006KT 18/15 A2994 RMK A01 T01760149  RH  084%=      5-min Rain = 0
KTH1 160841Z 24006KT 18/15 A2994 RMK A01 T01760150  RH  084%=      5-min Rain = 0
KTH1 160842Z 23007KT 18/15 A2994 RMK A01 T01770151  RH  085%=      5-min Rain = 0
KTH1 160843Z 23007KT 18/15 A2994 RMK A01 T01770151  RH  085%=      5-min Rain = 0
KTH1 160844Z 23006KT 18/15 A2994 RMK A01 T01770151  RH  085%=      5-min Rain = 0
KTH1 160845Z 23005KT 18/15 A2994 RMK A01 T01760150  RH  085%=      5-min Rain = 0
KTH1 160846Z 23006KT 18/15 A2994 RMK A01 T01760151  RH  085%=      5-min Rain = 0
KTH1 160847Z 23006KT 18/15 A2994 RMK A01 T01760151  RH  085%=      5-min Rain = 0
KTH1 160848Z 24007KT 18/15 A2994 RMK A01 T01760150  RH  085%=      5-min Rain = 0
KTH1 160849Z 24007KT 18/15 A2994 RMK A01 T01760150  RH  085%=      5-min Rain = 0
KTH1 160850Z 23008KT 18/15 A2994 RMK A01 T01760150  RH  085%=      5-min Rain = 0
KTH1 160851Z 22008KT 18/15 A2994 RMK A01 T01760150  RH  085%=      5-min Rain = 0
KTH1 160852Z 21008KT 18/15 A2994 RMK A01 T01760150  RH  085%=      5-min Rain = 0
KTH1 160853Z 21007KT 18/15 A2994 RMK A01 T01760149  RH  084%=      5-min Rain = 0
KTH1 160854Z 21007KT 18/15 A2994 RMK A01 T01760149  RH  084%=      5-min Rain = 0
KTH1 160855Z 21007KT 18/15 A2994 RMK A01 T01760148  RH  084%=      5-min Rain = 0
KTH1 160856Z 22007KT 18/15 A2994 RMK A01 T01770148  RH  084%=      5-min Rain = 0
KTH1 160857Z 22006KT 18/15 A2994 RMK A01 T01770149  RH  083%=      5-min Rain = 0
KTH1 160858Z 22006KT 18/15 A2994 RMK A01 T01770149  RH  084%=      5-min Rain = 0
KTH1 160859Z 23006KT 18/15 A2994 RMK A01 T01780150  RH  084%=      5-min Rain = 0
KTH1 160900Z 22006KT 18/15 A2994 RMK A01 T01770150  RH  084%=      5-min Rain = 0
KTH1 160901Z 22006KT 18/15 A2994 RMK A01 T01770150  RH  084%=      5-min Rain = 0
KTH1 160902Z 21006KT 18/15 A2994 RMK A01 T01770149  RH  084%=      5-min Rain = 0
KTH1 160903Z 21007KT 18/15 A2994 RMK A01 T01760148  RH  084%=      5-min Rain = 0
KTH1 160904Z 21005KT 18/15 A2994 RMK A01 T01760148  RH  084%=      5-min Rain = 0
KTH1 160905Z 21006KT 18/15 A2994 RMK A01 T01760148  RH  084%=      5-min Rain = 0
KTH1 160906Z 22007KT 18/15 A2994 RMK A01 T01750148  RH  084%=      5-min Rain = 0
KTH1 160907Z 22006KT 17/15 A2994 RMK A01 T01740149  RH  085%=      5-min Rain = 0
KTH1 160908Z 22007KT 17/15 A2994 RMK A01 T01740148  RH  085%=      5-min Rain = 0
KTH1 160909Z 22006KT 17/15 A2994 RMK A01 T01740148  RH  085%=      5-min Rain = 0
KTH1 160910Z 23006KT 18/15 A2994 RMK A01 T01750149  RH  085%=      5-min Rain = 0
KTH1 160911Z 23005KT 18/15 A2994 RMK A01 T01750149  RH  085%=      5-min Rain = 0
KTH1 160912Z 23006KT 18/15 A2994 RMK A01 T01760150  RH  085%=      5-min Rain = 0
KTH1 160913Z 23006KT 18/15 A2994 RMK A01 T01760150  RH  085%=      5-min Rain = 0
KTH1 160914Z 23006KT 18/15 A2994 RMK A01 T01750150  RH  085%=      5-min Rain = 0
KTH1 160915Z 23005KT 18/15 A2994 RMK A01 T01750151  RH  085%=      5-min Rain = 0
KTH1 160916Z 23006KT 18/15 A2994 RMK A01 T01750150  RH  085%=      5-min Rain = 0
KTH1 160917Z 23005KT 18/15 A2994 RMK A01 T01750150  RH  086%=      5-min Rain = 0
KTH1 160918Z 23004KT 17/15 A2994 RMK A01 T01740149  RH  085%=      5-min Rain = 0
KTH1 160919Z 24004KT 17/15 A2994 RMK A01 T01740150  RH  085%=      5-min Rain = 0
KTH1 160920Z 23005KT 18/15 A2994 RMK A01 T01750150  RH  085%=      5-min Rain = 0
KTH1 160921Z 24005KT 17/15 A2994 RMK A01 T01740150  RH  086%=      5-min Rain = 0
KTH1 160922Z 24005KT 17/15 A2994 RMK A01 T01740150  RH  086%=      5-min Rain = 0
KTH1 160923Z 24005KT 17/15 A2994 RMK A01 T01740151  RH  086%=      5-min Rain = 0
KTH1 160924Z 24005KT 17/15 A2994 RMK A01 T01740152  RH  087%=      5-min Rain = 0
KTH1 160925Z 25004KT 18/15 A2994 RMK A01 T01750153  RH  087%=      5-min Rain = 0
KTH1 160926Z 24004KT 18/16 A2994 RMK A01 T01750155  RH  088%=      5-min Rain = 0
KTH1 160927Z 24004KT 18/16 A2993 RMK A01 T01760156  RH  088%=      5-min Rain = 0
KTH1 160928Z 25005KT 18/16 A2993 RMK A01 T01770157  RH  088%=      5-min Rain = 0
KTH1 160929Z 25004KT 18/16 A2994 RMK A01 T01770156  RH  088%=      5-min Rain = 0
KTH1 160930Z 25005KT 18/16 A2994 RMK A01 T01760156  RH  088%=      5-min Rain = 0
KTH1 160931Z 27004KT 18/16 A2994 RMK A01 T01770158  RH  089%=      5-min Rain = 0
KTH1 160932Z 27003KT 18/16 A2994 RMK A01 T01780159  RH  089%=      5-min Rain = 0
KTH1 160933Z 30002KT 18/16 A2994 RMK A01 T01770158  RH  088%=      5-min Rain = 0
KTH1 160934Z 34003KT 18/16 A2995 RMK A01 T01780160  RH  089%=      5-min Rain = 0
KTH1 160935Z 35005KT 18/16 A2995 RMK A01 T01780159  RH  088%=      5-min Rain = 0
KTH1 160936Z 35005KT 18/16 A2995 RMK A01 T01780155  RH  087%=      5-min Rain = 0
KTH1 160937Z 01005KT 18/15 A2995 RMK A01 T01760152  RH  086%=      5-min Rain = 0
KTH1 160938Z 01005KT 17/15 A2996 RMK A01 T01740150  RH  086%=      5-min Rain = 0
KTH1 160939Z 36005KT 17/15 A2996 RMK A01 T01730150  RH  086%=      5-min Rain = 0
KTH1 160940Z 35004KT 17/15 A2996 RMK A01 T01720149  RH  086%=      5-min Rain = 0
KTH1 160941Z 35004KT 17/15 A2996 RMK A01 T01710149  RH  087%=      5-min Rain = 0
KTH1 160942Z 36004KT 17/15 A2996 RMK A01 T01710149  RH  087%=      5-min Rain = 0
KTH1 160943Z 01004KT 17/15 A2996 RMK A01 T01710149  RH  087%=      5-min Rain = 0
KTH1 160944Z 01004KT 17/15 A2996 RMK A01 T01710149  RH  087%=      5-min Rain = 0
KTH1 160945Z 02004KT 17/15 A2996 RMK A01 T01710148  RH  086%=      5-min Rain = 0
KTH1 160946Z 03004KT 17/15 A2997 RMK A01 T01710148  RH  086%=      5-min Rain = 0
KTH1 160947Z 04003KT 17/15 A2997 RMK A01 T01710148  RH  086%=      5-min Rain = 0
KTH1 160948Z 01003KT 17/15 A2997 RMK A01 T01710148  RH  086%=      5-min Rain = 0
KTH1 160949Z 35002KT 17/15 A2997 RMK A01 T01710148  RH  086%=      5-min Rain = 0
KTH1 160950Z 00002KT 17/15 A2997 RMK A01 T01710148  RH  086%=      5-min Rain = 0
KTH1 160951Z 03001KT 17/15 A2997 RMK A01 T01710148  RH  086%=      5-min Rain = 0
KTH1 160952Z 07002KT 17/15 A2997 RMK A01 T01710147  RH  086%=      5-min Rain = 0
KTH1 160953Z 08003KT 17/15 A2997 RMK A01 T01710148  RH  086%=      5-min Rain = 0
KTH1 160954Z 08003KT 17/15 A2997 RMK A01 T01700148  RH  087%=      5-min Rain = 0
KTH1 160955Z 08003KT 17/15 A2998 RMK A01 T01700148  RH  087%=      5-min Rain = 0
KTH1 160956Z 09004KT 17/15 A2998 RMK A01 T01690148  RH  087%=      5-min Rain = 0
KTH1 160957Z 10004KT 17/15 A2998 RMK A01 T01690149  RH  088%=      5-min Rain = 0
KTH1 160958Z 10004KT 17/15 A2998 RMK A01 T01680150  RH  089%=      5-min Rain = 0
KTH1 160959Z 08004KT 17/15 A2997 RMK A01 T01680149  RH  089%=      5-min Rain = 0
KTH1 161000Z 08003KT 17/15 A2997 RMK A01 T01670149  RH  089%=      5-min Rain = 0
KTH1 161001Z 07004KT 17/15 A2997 RMK A01 T01660149  RH  089%=      5-min Rain = 0
KTH1 161002Z 07004KT 17/15 A2997 RMK A01 T01660148  RH  089%=      5-min Rain = 0
KTH1 161003Z 05002KT 17/15 A2997 RMK A01 T01660148  RH  089%=      5-min Rain = 0
KTH1 161004Z 05003KT 17/15 A2997 RMK A01 T01660148  RH  089%=      5-min Rain = 0
KTH1 161005Z 05003KT 17/15 A2997 RMK A01 T01650147  RH  089%=      5-min Rain = 0
KTH1 161006Z 05005KT 17/15 A2997 RMK A01 T01650147  RH  089%=      5-min Rain = 0
KTH1 161007Z 06005KT 17/15 A2997 RMK A01 T01650147  RH  089%=      5-min Rain = 0
KTH1 161008Z 06004KT 17/15 A2997 RMK A01 T01650147  RH  089%=      5-min Rain = 0
KTH1 161009Z 07004KT 17/15 A2997 RMK A01 T01660147  RH  089%=      5-min Rain = 0
KTH1 161010Z 06003KT 17/15 A2997 RMK A01 T01650146  RH  088%=      5-min Rain = 0
KTH1 161011Z 06002KT 17/15 A2996 RMK A01 T01650146  RH  088%=      5-min Rain = 0
KTH1 161012Z 07001KT 17/15 A2996 RMK A01 T01660147  RH  089%=      5-min Rain = 0
KTH1 161013Z 02001KT 17/15 A2996 RMK A01 T01650146  RH  089%=      5-min Rain = 0
KTH1 161014Z 01001KT 17/15 A2996 RMK A01 T01650147  RH  089%=      5-min Rain = 0
KTH1 161015Z 02001KT 17/15 A2995 RMK A01 T01650146  RH  089%=      5-min Rain = 0
KTH1 161016Z 03001KT 17/15 A2995 RMK A01 T01650146  RH  089%=      5-min Rain = 0
KTH1 161017Z 05001KT 16/15 A2995 RMK A01 T01640146  RH  089%=      5-min Rain = 0
KTH1 161018Z 07003KT 16/15 A2995 RMK A01 T01640146  RH  089%=      5-min Rain = 0
KTH1 161019Z 08003KT 16/15 A2995 RMK A01 T01630145  RH  089%=      5-min Rain = 0
KTH1 161020Z 09003KT 16/15 A2995 RMK A01 T01620145  RH  089%=      5-min Rain = 0
KTH1 161021Z 10002KT 16/14 A2995 RMK A01 T01610144  RH  090%=      5-min Rain = 0
KTH1 161022Z 09001KT 16/15 A2995 RMK A01 T01600145  RH  090%=      5-min Rain = 0
KTH1 161023Z 09001KT 16/15 A2995 RMK A01 T01600145  RH  091%=      5-min Rain = 0
KTH1 161024Z 09001KT 16/15 A2995 RMK A01 T01600145  RH  091%=      5-min Rain = 0
KTH1 161025Z 13001KT 16/15 A2995 RMK A01 T01590145  RH  091%=      5-min Rain = 0
KTH1 161026Z 14001KT 16/14 A2995 RMK A01 T01580144  RH  091%=      5-min Rain = 0
KTH1 161027Z 16002KT 16/15 A2995 RMK A01 T01580145  RH  092%=      5-min Rain = 0
KTH1 161028Z 17003KT 16/15 A2995 RMK A01 T01580145  RH  092%=      5-min Rain = 0
KTH1 161029Z 17003KT 16/15 A2995 RMK A01 T01580145  RH  092%=      5-min Rain = 0
KTH1 161030Z 19001KT 16/15 A2995 RMK A01 T01580145  RH  092%=      5-min Rain = 0
KTH1 161031Z 19000KT 16/15 A2996 RMK A01 T01580145  RH  092%=      5-min Rain = 0
KTH1 161032Z 04002KT 16/15 A2996 RMK A01 T01580145  RH  092%=      5-min Rain = 0
KTH1 161033Z 02003KT 16/15 A2997 RMK A01 T01580145  RH  092%=      5-min Rain = 0
KTH1 161034Z 03003KT 16/15 A2997 RMK A01 T01590145  RH  092%=      5-min Rain = 0
KTH1 161035Z 04003KT 16/15 A2997 RMK A01 T01590145  RH  092%=      5-min Rain = 0
KTH1 161036Z 07003KT 16/15 A2996 RMK A01 T01590145  RH  092%=      5-min Rain = 0
KTH1 161037Z 08002KT 16/15 A2996 RMK A01 T01590145  RH  092%=      5-min Rain = 0
KTH1 161038Z 11002KT 16/15 A2996 RMK A01 T01580145  RH  091%=      5-min Rain = 0
KTH1 161039Z 13003KT 16/14 A2996 RMK A01 T01580144  RH  092%=      5-min Rain = 0
KTH1 161040Z 15003KT 16/14 A2996 RMK A01 T01580144  RH  092%=      5-min Rain = 0
KTH1 161041Z 16003KT 16/14 A2996 RMK A01 T01570144  RH  092%=      5-min Rain = 0
KTH1 161042Z 14002KT 16/14 A2996 RMK A01 T01570144  RH  092%=      5-min Rain = 0
KTH1 161043Z 09001KT 16/14 A2997 RMK A01 T01570144  RH  092%=      5-min Rain = 0
KTH1 161044Z 03002KT 16/15 A2997 RMK A01 T01570145  RH  092%=      5-min Rain = 0
KTH1 161045Z 01003KT 16/15 A2997 RMK A01 T01570145  RH  092%=      5-min Rain = 0
KTH1 161046Z 01004KT 16/14 A2997 RMK A01 T01570144  RH  092%=      5-min Rain = 0
KTH1 161047Z 02004KT 16/14 A2997 RMK A01 T01570144  RH  092%=      5-min Rain = 0
KTH1 161048Z 03004KT 16/15 A2997 RMK A01 T01570145  RH  092%=      5-min Rain = 0
KTH1 161049Z 04004KT 16/14 A2997 RMK A01 T01570144  RH  092%=      5-min Rain = 0
KTH1 161050Z 06003KT 16/15 A2997 RMK A01 T01570145  RH  092%=      5-min Rain = 0
KTH1 161051Z 07004KT 16/14 A2997 RMK A01 T01560144  RH  092%=      5-min Rain = 0
KTH1 161052Z 09003KT 16/14 A2997 RMK A01 T01560144  RH  092%=      5-min Rain = 0
KTH1 161053Z 08003KT 16/14 A2997 RMK A01 T01560144  RH  092%=      5-min Rain = 0
KTH1 161054Z 08002KT 16/14 A2997 RMK A01 T01560144  RH  092%=      5-min Rain = 0
KTH1 161055Z 07002KT 16/14 A2997 RMK A01 T01560144  RH  092%=      5-min Rain = 0
KTH1 161056Z 06003KT 16/14 A2997 RMK A01 T01560144  RH  092%=      5-min Rain = 0
KTH1 161057Z 06004KT 16/14 A2997 RMK A01 T01560144  RH  093%=      5-min Rain = 0
KTH1 161058Z 06003KT 16/14 A2997 RMK A01 T01550144  RH  093%=      5-min Rain = 0
KTH1 161059Z 07002KT 16/14 A2997 RMK A01 T01550144  RH  093%=      5-min Rain = 0
KTH1 161100Z 07002KT 16/14 A2997 RMK A01 T01550144  RH  093%=      5-min Rain = 0
KTH1 161101Z 08002KT 16/14 A2997 RMK A01 T01550144  RH  093%=      5-min Rain = 0
KTH1 161102Z 08001KT 16/14 A2997 RMK A01 T01550143  RH  093%=      5-min Rain = 0
KTH1 161103Z 04001KT 16/14 A2997 RMK A01 T01550144  RH  093%=      5-min Rain = 0
KTH1 161104Z 03002KT 15/14 A2997 RMK A01 T01540143  RH  093%=      5-min Rain = 0
KTH1 161105Z 02002KT 15/14 A2997 RMK A01 T01540143  RH  093%=      5-min Rain = 0
KTH1 161106Z 34003KT 16/15 A2997 RMK A01 T01550145  RH  094%=      5-min Rain = 0
KTH1 161107Z 33003KT 16/15 A2997 RMK A01 T01570148  RH  094%=      5-min Rain = 0
KTH1 161108Z 31002KT 16/15 A2997 RMK A01 T01590148  RH  094%=      5-min Rain = 0
KTH1 161109Z 30002KT 16/15 A2998 RMK A01 T01600148  RH  093%=      5-min Rain = 0
KTH1 161110Z 30002KT 16/15 A2998 RMK A01 T01610148  RH  092%=      5-min Rain = 0
KTH1 161111Z 31003KT 16/15 A2998 RMK A01 T01620150  RH  092%=      5-min Rain = 0
KTH1 161112Z 30003KT 16/15 A2998 RMK A01 T01640152  RH  092%=      5-min Rain = 0
KTH1 161113Z 30003KT 17/15 A2999 RMK A01 T01650152  RH  092%=      5-min Rain = 0
KTH1 161114Z 31004KT 17/15 A2999 RMK A01 T01660151  RH  091%=      5-min Rain = 0
KTH1 161115Z 31004KT 17/15 A2999 RMK A01 T01660150  RH  090%=      5-min Rain = 0
KTH1 161116Z 31005KT 17/15 A2999 RMK A01 T01650149  RH  090%=      5-min Rain = 0
KTH1 161117Z 31004KT 16/15 A2999 RMK A01 T01640148  RH  090%=      5-min Rain = 0
KTH1 161118Z 32003KT 16/15 A2999 RMK A01 T01630147  RH  090%=      5-min Rain = 0
KTH1 161119Z 31003KT 16/15 A2998 RMK A01 T01620146  RH  090%=      5-min Rain = 0
KTH1 161120Z 31002KT 16/15 A2998 RMK A01 T01620145  RH  090%=      5-min Rain = 0
KTH1 161121Z 32003KT 16/15 A2998 RMK A01 T01620145  RH  090%=      5-min Rain = 0
KTH1 161122Z 32003KT 16/15 A2998 RMK A01 T01620145  RH  090%=      5-min Rain = 0
KTH1 161123Z 31004KT 16/15 A2998 RMK A01 T01620145  RH  090%=      5-min Rain = 0
KTH1 161124Z 31004KT 16/15 A2998 RMK A01 T01610145  RH  090%=      5-min Rain = 0
KTH1 161125Z 31004KT 16/15 A2998 RMK A01 T01610146  RH  090%=      5-min Rain = 0
KTH1 161126Z 31003KT 16/15 A2998 RMK A01 T01620146  RH  091%=      5-min Rain = 0
KTH1 161127Z 33004KT 16/15 A2998 RMK A01 T01620146  RH  091%=      5-min Rain = 0
KTH1 161128Z 36004KT 16/14 A2998 RMK A01 T01600144  RH  090%=      5-min Rain = 0
KTH1 161129Z 34004KT 16/14 A2998 RMK A01 T01590142  RH  090%=      5-min Rain = 0
KTH1 161130Z 33003KT 16/14 A2998 RMK A01 T01590142  RH  090%=      5-min Rain = 0
KTH1 161131Z 31003KT 16/14 A2998 RMK A01 T01590142  RH  090%=      5-min Rain = 0
KTH1 161132Z 30004KT 16/14 A2998 RMK A01 T01590142  RH  090%=      5-min Rain = 0
KTH1 161133Z 30006KT 16/14 A2998 RMK A01 T01590143  RH  090%=      5-min Rain = 0
KTH1 161134Z 30004KT 16/15 A2998 RMK A01 T01600145  RH  091%=      5-min Rain = 0
KTH1 161135Z 31005KT 16/15 A2999 RMK A01 T01610148  RH  092%=      5-min Rain = 0
KTH1 161136Z 30006KT 16/15 A2999 RMK A01 T01620149  RH  092%=      5-min Rain = 0
KTH1 161137Z 29006KT 16/15 A2999 RMK A01 T01630150  RH  092%=      5-min Rain = 0
KTH1 161138Z 30005KT 16/15 A2998 RMK A01 T01630149  RH  091%=      5-min Rain = 0
KTH1 161139Z 30004KT 16/15 A2998 RMK A01 T01640149  RH  091%=      5-min Rain = 0
KTH1 161140Z 30004KT 17/15 A2998 RMK A01 T01650150  RH  091%=      5-min Rain = 0
KTH1 161141Z 32004KT 17/15 A2999 RMK A01 T01650150  RH  091%=      5-min Rain = 0
KTH1 161142Z 33003KT 17/15 A2999 RMK A01 T01650148  RH  090%=      5-min Rain = 0
KTH1 161143Z 33002KT 17/15 A2998 RMK A01 T01650146  RH  088%=      5-min Rain = 0
KTH1 161144Z 34003KT 17/15 A2998 RMK A01 T01650145  RH  088%=      5-min Rain = 0
KTH1 161145Z 34002KT 17/14 A2998 RMK A01 T01650144  RH  088%=      5-min Rain = 0
KTH1 161146Z 34001KT 17/15 A2998 RMK A01 T01650145  RH  088%=      5-min Rain = 0
KTH1 161147Z 35002KT 16/15 A2998 RMK A01 T01640145  RH  088%=      5-min Rain = 0
KTH1 161148Z 34003KT 16/14 A2999 RMK A01 T01640144  RH  088%=      5-min Rain = 0
KTH1 161149Z 33002KT 16/14 A2999 RMK A01 T01630144  RH  088%=      5-min Rain = 0
KTH1 161150Z 32003KT 16/14 A2999 RMK A01 T01630144  RH  088%=      5-min Rain = 0
KTH1 161151Z 31004KT 16/15 A2999 RMK A01 T01630145  RH  089%=      5-min Rain = 0
KTH1 161152Z 31005KT 16/15 A2999 RMK A01 T01630146  RH  089%=      5-min Rain = 0
KTH1 161153Z 31005KT 16/15 A2999 RMK A01 T01640148  RH  090%=      5-min Rain = 0
KTH1 161154Z 30006KT 17/15 A2999 RMK A01 T01650149  RH  090%=      5-min Rain = 0
KTH1 161155Z 30004KT 17/15 A2999 RMK A01 T01660147  RH  089%=      5-min Rain = 0
KTH1 161156Z 30005KT 17/15 A2999 RMK A01 T01670149  RH  089%=      5-min Rain = 0
KTH1 161157Z 30004KT 17/15 A2998 RMK A01 T01680149  RH  088%=      5-min Rain = 0
KTH1 161158Z 31003KT 17/15 A2998 RMK A01 T01690149  RH  088%=      5-min Rain = 0
KTH1 161159Z 33002KT 17/15 A2998 RMK A01 T01690149  RH  088%=      5-min Rain = 0
KTH1 161200Z 32002KT 17/15 A2998 RMK A01 T01700149  RH  088%=      5-min Rain = 0
KTH1 161201Z 30002KT 17/15 A2998 RMK A01 T01700148  RH  087%=      5-min Rain = 0
KTH1 161202Z 30002KT 17/15 A2999 RMK A01 T01700148  RH  087%=      5-min Rain = 0
KTH1 161203Z 31003KT 17/15 A2999 RMK A01 T01710147  RH  086%=      5-min Rain = 0
KTH1 161204Z 31004KT 17/15 A2999 RMK A01 T01720149  RH  087%=      5-min Rain = 0
KTH1 161205Z 30003KT 17/15 A30 RMK A01 T01720149  RH  086%=      5-min Rain = 0
KTH1 161206Z 29003KT 17/15 A30 RMK A01 T01730149  RH  086%=      5-min Rain = 0
KTH1 161207Z 28003KT 17/15 A30 RMK A01 T01740150  RH  086%=      5-min Rain = 0
KTH1 161208Z 28003KT 18/15 A30 RMK A01 T01750151  RH  086%=      5-min Rain = 0
KTH1 161209Z 26003KT 17/15 A30 RMK A01 T01740150  RH  085%=      5-min Rain = 0
KTH1 161210Z 25003KT 18/15 A30 RMK A01 T01750149  RH  085%=      5-min Rain = 0
KTH1 161211Z 25002KT 18/15 A30 RMK A01 T01750151  RH  085%=      5-min Rain = 0
KTH1 161212Z 26002KT 18/15 A30 RMK A01 T01760151  RH  085%=      5-min Rain = 0
KTH1 161213Z 29002KT 18/15 A30 RMK A01 T01760150  RH  085%=      5-min Rain = 0
KTH1 161214Z 21002KT 18/15 A3001 RMK A01 T01760151  RH  085%=      5-min Rain = 0
KTH1 161215Z 19002KT 18/15 A3001 RMK A01 T01770153  RH  086%=      5-min Rain = 0
KTH1 161216Z 18002KT 18/15 A3001 RMK A01 T01770152  RH  085%=      5-min Rain = 0
KTH1 161217Z 19002KT 18/15 A3001 RMK A01 T01770152  RH  085%=      5-min Rain = 0
KTH1 161218Z 21002KT 18/15 A3001 RMK A01 T01770152  RH  085%=      5-min Rain = 0
KTH1 161219Z 20001KT 18/15 A3001 RMK A01 T01770149  RH  084%=      5-min Rain = 0
KTH1 161220Z 20000KT 18/15 A3001 RMK A01 T01760150  RH  084%=      5-min Rain = 0
KTH1 161221Z 15001KT 18/15 A3001 RMK A01 T01760150  RH  085%=      5-min Rain = 0
KTH1 161222Z 14002KT 18/15 A3001 RMK A01 T01760150  RH  085%=      5-min Rain = 0
KTH1 161223Z 15002KT 18/15 A3001 RMK A01 T01750151  RH  086%=      5-min Rain = 0
KTH1 161224Z 14002KT 18/15 A3001 RMK A01 T01750151  RH  086%=      5-min Rain = 0
KTH1 161225Z 15002KT 18/15 A3001 RMK A01 T01750152  RH  086%=      5-min Rain = 0
KTH1 161226Z 16002KT 18/15 A3001 RMK A01 T01750152  RH  087%=      5-min Rain = 0
KTH1 161227Z 16002KT 18/15 A3001 RMK A01 T01750151  RH  086%=      5-min Rain = 0
KTH1 161228Z 20001KT 18/15 A3001 RMK A01 T01750151  RH  086%=      5-min Rain = 0
KTH1 161229Z 23002KT 17/15 A3002 RMK A01 T01740151  RH  086%=      5-min Rain = 0
KTH1 161230Z 25003KT 17/15 A3002 RMK A01 T01740151  RH  087%=      5-min Rain = 0
KTH1 161231Z 25004KT 17/15 A3002 RMK A01 T01740152  RH  087%=      5-min Rain = 0
KTH1 161232Z 26003KT 17/15 A3002 RMK A01 T01740153  RH  088%=      5-min Rain = 0
KTH1 161233Z 26003KT 17/16 A3002 RMK A01 T01740155  RH  088%=      5-min Rain = 0
KTH1 161234Z 25004KT 18/16 A3002 RMK A01 T01750155  RH  088%=      5-min Rain = 0
KTH1 161235Z 24004KT 18/16 A3002 RMK A01 T01750157  RH  089%=      5-min Rain = 0
KTH1 161236Z 26005KT 18/16 A3002 RMK A01 T01760157  RH  089%=      5-min Rain = 0
KTH1 161237Z 24005KT 18/16 A3003 RMK A01 T01760158  RH  089%=      5-min Rain = 0
KTH1 161238Z 24006KT 18/16 A3003 RMK A01 T01760157  RH  089%=      5-min Rain = 0
KTH1 161239Z 24005KT 18/16 A3002 RMK A01 T01760156  RH  088%=      5-min Rain = 0
KTH1 161240Z 23004KT 18/16 A3002 RMK A01 T01760156  RH  088%=      5-min Rain = 0
KTH1 161241Z 23004KT 18/16 A3002 RMK A01 T01760156  RH  088%=      5-min Rain = 0
KTH1 161242Z 24004KT 18/16 A3002 RMK A01 T01760155  RH  088%=      5-min Rain = 0
KTH1 161243Z 24004KT 18/16 A3002 RMK A01 T01760156  RH  088%=      5-min Rain = 0
KTH1 161244Z 23004KT 18/16 A3002 RMK A01 T01750155  RH  088%=      5-min Rain = 0
KTH1 161245Z 23005KT 18/15 A3002 RMK A01 T01750154  RH  088%=      5-min Rain = 0
KTH1 161246Z 22004KT 18/15 A3002 RMK A01 T01750153  RH  087%=      5-min Rain = 0
KTH1 161247Z 22005KT 17/15 A3002 RMK A01 T01740154  RH  088%=      5-min Rain = 0
KTH1 161248Z 22006KT 17/15 A3002 RMK A01 T01740154  RH  088%=      5-min Rain = 0
KTH1 161249Z 23006KT 17/15 A3002 RMK A01 T01730153  RH  088%=      5-min Rain = 0
KTH1 161250Z 23005KT 17/15 A3002 RMK A01 T01720153  RH  088%=      5-min Rain = 0
KTH1 161251Z 23004KT 17/15 A3001 RMK A01 T01720153  RH  088%=      5-min Rain = 0
KTH1 161252Z 23004KT 17/15 A3001 RMK A01 T01720152  RH  088%=      5-min Rain = 0
KTH1 161253Z 22004KT 17/15 A3001 RMK A01 T01730152  RH  088%=      5-min Rain = 0
KTH1 161254Z 22003KT 17/15 A3001 RMK A01 T01730152  RH  088%=      5-min Rain = 0
KTH1 161255Z 21004KT 17/15 A3001 RMK A01 T01730152  RH  088%=      5-min Rain = 0
KTH1 161256Z 21004KT 17/15 A3001 RMK A01 T01730153  RH  088%=      5-min Rain = 0
KTH1 161257Z 20004KT 17/15 A3001 RMK A01 T01730154  RH  088%=      5-min Rain = 0
KTH1 161258Z 21004KT 17/15 A3001 RMK A01 T01730154  RH  089%=      5-min Rain = 0
KTH1 161259Z 21004KT 17/15 A3001 RMK A01 T01730153  RH  088%=      5-min Rain = 0
KTH1 161300Z 21005KT 17/15 A3001 RMK A01 T01720153  RH  088%=      5-min Rain = 0
KTH1 161301Z 22005KT 17/15 A3001 RMK A01 T01730154  RH  089%=      5-min Rain = 0
KTH1 161302Z 22005KT 17/15 A3001 RMK A01 T01730153  RH  088%=      5-min Rain = 0
KTH1 161303Z 23005KT 17/15 A3001 RMK A01 T01720153  RH  088%=      5-min Rain = 0
KTH1 161304Z 22005KT 17/15 A3001 RMK A01 T01730152  RH  088%=      5-min Rain = 0
KTH1 161305Z 21004KT 17/15 A3001 RMK A01 T01730151  RH  087%=      5-min Rain = 0
KTH1 161306Z 21004KT 17/15 A3001 RMK A01 T01730152  RH  087%=      5-min Rain = 0
KTH1 161307Z 20003KT 17/15 A3001 RMK A01 T01740152  RH  087%=      5-min Rain = 0
KTH1 161308Z 19003KT 17/15 A3001 RMK A01 T01740152  RH  087%=      5-min Rain = 0
KTH1 161309Z 19004KT 17/15 A3001 RMK A01 T01740152  RH  087%=      5-min Rain = 0
KTH1 161310Z 19004KT 17/15 A3001 RMK A01 T01740152  RH  087%=      5-min Rain = 0
KTH1 161311Z 18003KT 17/15 A3001 RMK A01 T01740153  RH  087%=      5-min Rain = 0
KTH1 161312Z 17003KT 17/15 A3001 RMK A01 T01740153  RH  088%=      5-min Rain = 0
KTH1 161313Z 15002KT 17/15 A3002 RMK A01 T01740153  RH  088%=      5-min Rain = 0
KTH1 161314Z 15002KT 17/15 A3002 RMK A01 T01740154  RH  088%=      5-min Rain = 0
KTH1 161315Z 15003KT 17/16 A3002 RMK A01 T01740155  RH  088%=      5-min Rain = 0
KTH1 161316Z 16004KT 17/16 A3002 RMK A01 T01740155  RH  089%=      5-min Rain = 0
KTH1 161317Z 16005KT 17/16 A3002 RMK A01 T01740155  RH  089%=      5-min Rain = 0
KTH1 161318Z 17005KT 17/15 A3002 RMK A01 T01740154  RH  088%=      5-min Rain = 0
KTH1 161319Z 17005KT 17/15 A3002 RMK A01 T01740154  RH  088%=      5-min Rain = 0
KTH1 161320Z 17005KT 17/15 A3002 RMK A01 T01740154  RH  088%=      5-min Rain = 0
KTH1 161321Z 17005KT 17/15 A3002 RMK A01 T01740153  RH  088%=      5-min Rain = 0
KTH1 161322Z 17004KT 17/15 A3002 RMK A01 T01740154  RH  088%=      5-min Rain = 0
KTH1 161323Z 17006KT 17/15 A3002 RMK A01 T01740154  RH  088%=      5-min Rain = 0
KTH1 161324Z 18005KT 17/16 A3001 RMK A01 T01740155  RH  088%=      5-min Rain = 0
KTH1 161325Z 18005KT 17/16 A3001 RMK A01 T01740155  RH  089%=      5-min Rain = 0
KTH1 161326Z 18005KT 17/16 A3001 RMK A01 T01740156  RH  089%=      5-min Rain = 0
KTH1 161327Z 19006KT 17/16 A3001 RMK A01 T01740157  RH  089%=      5-min Rain = 0
KTH1 161328Z 19006KT 17/16 A3001 RMK A01 T01740157  RH  090%=      5-min Rain = 0
KTH1 161329Z 19006KT 17/16 A3001 RMK A01 T01740156  RH  089%=      5-min Rain = 0
KTH1 161330Z 19005KT 17/16 A3001 RMK A01 T01740157  RH  089%=      5-min Rain = 0
KTH1 161331Z 19005KT 17/16 A3001 RMK A01 T01740156  RH  089%=      5-min Rain = 0
KTH1 161332Z 19004KT 17/16 A3001 RMK A01 T01740157  RH  089%=      5-min Rain = 0
KTH1 161333Z 18004KT 18/16 A3001 RMK A01 T01750156  RH  089%=      5-min Rain = 0
KTH1 161334Z 18003KT 18/16 A3001 RMK A01 T01750157  RH  089%=      5-min Rain = 0
KTH1 161335Z 18003KT 18/16 A3001 RMK A01 T01750157  RH  089%=      5-min Rain = 0
KTH1 161336Z 19004KT 18/16 A3001 RMK A01 T01750157  RH  089%=      5-min Rain = 0
KTH1 161337Z 19004KT 18/16 A3001 RMK A01 T01760158  RH  089%=      5-min Rain = 0
KTH1 161338Z 21005KT 18/16 A3001 RMK A01 T01760158  RH  089%=      5-min Rain = 0
KTH1 161339Z 23006KT 18/16 A3001 RMK A01 T01760157  RH  089%=      5-min Rain = 0
KTH1 161340Z 25007KT 18/16 A3002 RMK A01 T01770159  RH  089%=      5-min Rain = 0
KTH1 161341Z 27006G11KT 18/16 A3002 RMK A01 T01790164  RH  091%=      5-min Rain = 0
KTH1 161342Z 28011KT 18/17 A3003 RMK A01 T01810168  RH  092%=      5-min Rain = 0
KTH1 161343Z 29012KT 18/17 A3003 RMK A01 T01820168  RH  091%=      5-min Rain = 0
KTH1 161344Z 29011KT 18/17 A3003 RMK A01 T01830167  RH  091%=      5-min Rain = 0
KTH1 161345Z 27009KT 18/17 A3003 RMK A01 T01830166  RH  090%=      5-min Rain = 0
KTH1 161346Z 28008KT 18/17 A3003 RMK A01 T01840166  RH  089%=      5-min Rain = 0
KTH1 161347Z 27008KT 19/17 A3003 RMK A01 T01850165  RH  088%=      5-min Rain = 0
KTH1 161348Z 26010KT 19/17 A3002 RMK A01 T01850165  RH  088%=      5-min Rain = 0
KTH1 161349Z 25010KT 19/16 A3002 RMK A01 T01850164  RH  088%=      5-min Rain = 0
KTH1 161350Z 24010KT 19/16 A3002 RMK A01 T01860164  RH  087%=      5-min Rain = 0
KTH1 161351Z 24008KT 19/16 A3002 RMK A01 T01860163  RH  086%=      5-min Rain = 0
KTH1 161352Z 25006KT 19/16 A3002 RMK A01 T01870162  RH  085%=      5-min Rain = 0
KTH1 161353Z 26007KT 19/16 A3003 RMK A01 T01880161  RH  084%=      5-min Rain = 0
KTH1 161354Z 27007KT 19/16 A3003 RMK A01 T01890163  RH  085%=      5-min Rain = 0
KTH1 161355Z 28005KT 19/17 A3003 RMK A01 T01900166  RH  086%=      5-min Rain = 0
KTH1 161356Z 27005KT 19/17 A3003 RMK A01 T01910166  RH  086%=      5-min Rain = 0
KTH1 161357Z 27005KT 19/17 A3003 RMK A01 T01910166  RH  085%=      5-min Rain = 0
KTH1 161358Z 26007KT 19/16 A3003 RMK A01 T01910163  RH  084%=      5-min Rain = 0
KTH1 161359Z 26008KT 19/16 A3003 RMK A01 T01910162  RH  083%=      5-min Rain = 0
KTH1 161400Z 25008KT 19/16 A3003 RMK A01 T01920163  RH  083%=      5-min Rain = 0
KTH1 161401Z 25007KT 19/16 A3003 RMK A01 T01920162  RH  083%=      5-min Rain = 0
KTH1 161402Z 24007KT 19/16 A3003 RMK A01 T01930162  RH  082%=      5-min Rain = 0
KTH1 161403Z 24008KT 19/16 A3003 RMK A01 T01930162  RH  082%=      5-min Rain = 0
KTH1 161404Z 24007KT 19/16 A3003 RMK A01 T01930158  RH  080%=      5-min Rain = 0
KTH1 161405Z 24006KT 19/16 A3003 RMK A01 T01930158  RH  080%=      5-min Rain = 0
KTH1 161406Z 24006KT 19/16 A3003 RMK A01 T01930158  RH  080%=      5-min Rain = 0
KTH1 161407Z 23006KT 19/16 A3002 RMK A01 T01930155  RH  079%=      5-min Rain = 0
KTH1 161408Z 24006KT 19/16 A3002 RMK A01 T01930155  RH  078%=      5-min Rain = 0
KTH1 161409Z 24007KT 19/15 A3002 RMK A01 T01930154  RH  078%=      5-min Rain = 0
KTH1 161410Z 23004KT 19/15 A3002 RMK A01 T01930154  RH  078%=      5-min Rain = 0
KTH1 161411Z 23003KT 19/16 A3003 RMK A01 T01930155  RH  079%=      5-min Rain = 0
KTH1 161412Z 21002KT 19/16 A3003 RMK A01 T01920155  RH  079%=      5-min Rain = 0
KTH1 161413Z 22002KT 19/16 A3003 RMK A01 T01920155  RH  079%=      5-min Rain = 0
KTH1 161414Z 23003KT 19/16 A3003 RMK A01 T01920155  RH  079%=      5-min Rain = 0
KTH1 161415Z 23004KT 19/16 A3003 RMK A01 T01920156  RH  079%=      5-min Rain = 0
KTH1 161416Z 24006KT 19/16 A3003 RMK A01 T01920155  RH  079%=      5-min Rain = 0
KTH1 161417Z 24006KT 19/16 A3003 RMK A01 T01930156  RH  079%=      5-min Rain = 0
KTH1 161418Z 23005KT 19/16 A3003 RMK A01 T01930157  RH  080%=      5-min Rain = 0
KTH1 161419Z 22005KT 19/16 A3003 RMK A01 T01930157  RH  080%=      5-min Rain = 0
KTH1 161420Z 22004KT 19/16 A3003 RMK A01 T01930158  RH  080%=      5-min Rain = 0
KTH1 161421Z 23003KT 19/16 A3002 RMK A01 T01920158  RH  081%=      5-min Rain = 0
KTH1 161422Z 22004KT 19/16 A3002 RMK A01 T01920157  RH  080%=      5-min Rain = 0
KTH1 161423Z 24004KT 19/16 A3002 RMK A01 T01920158  RH  080%=      5-min Rain = 0
KTH1 161424Z 24006KT 19/16 A3002 RMK A01 T01920159  RH  081%=      5-min Rain = 0
KTH1 161425Z 23006KT 19/16 A3002 RMK A01 T01920158  RH  081%=      5-min Rain = 0
KTH1 161426Z 23005KT 19/16 A3002 RMK A01 T01920158  RH  080%=      5-min Rain = 0
KTH1 161427Z 22004KT 19/16 A3002 RMK A01 T01920158  RH  081%=      5-min Rain = 0
KTH1 161428Z 22004KT 19/16 A3002 RMK A01 T01920159  RH  081%=      5-min Rain = 0
KTH1 161429Z 23003KT 19/16 A3002 RMK A01 T01920159  RH  081%=      5-min Rain = 0
KTH1 161430Z 22003KT 19/16 A3002 RMK A01 T01920158  RH  081%=      5-min Rain = 0
KTH1 161431Z 23002KT 19/16 A3002 RMK A01 T01930161  RH  082%=      5-min Rain = 0
KTH1 161432Z 26003KT 19/16 A3002 RMK A01 T01930159  RH  081%=      5-min Rain = 0
KTH1 161433Z 27004KT 19/16 A3002 RMK A01 T01930159  RH  081%=      5-min Rain = 0
KTH1 161434Z 28005KT 19/16 A3002 RMK A01 T01940163  RH  082%=      5-min Rain = 0
KTH1 161435Z 28008KT 20/17 A3003 RMK A01 T01950166  RH  083%=      5-min Rain = 0
KTH1 161436Z 29008KT 20/17 A3003 RMK A01 T01970165  RH  082%=      5-min Rain = 0
KTH1 161437Z 29007KT 20/17 A3003 RMK A01 T01970166  RH  082%=      5-min Rain = 0
KTH1 161438Z 28006KT 20/17 A3002 RMK A01 T01980166  RH  082%=      5-min Rain = 0
KTH1 161439Z 26004KT 20/17 A3002 RMK A01 T01980165  RH  081%=      5-min Rain = 0
KTH1 161440Z 29002KT 20/17 A3002 RMK A01 T01990166  RH  081%=      5-min Rain = 0
KTH1 161441Z 28003KT 20/17 A3002 RMK A01 T01990166  RH  081%=      5-min Rain = 0
KTH1 161442Z 27002KT 20/16 A3002 RMK A01 T01990162  RH  079%=      5-min Rain = 0
KTH1 161443Z 29002KT 20/16 A3001 RMK A01 T02000162  RH  079%=      5-min Rain = 0
KTH1 161444Z 26001KT 20/16 A3001 RMK A01 T02000163  RH  079%=      5-min Rain = 0
KTH1 161445Z 28002KT 20/16 A3001 RMK A01 T02010163  RH  079%=      5-min Rain = 0
KTH1 161446Z 28001KT 20/16 A3001 RMK A01 T02010159  RH  077%=      5-min Rain = 0
KTH1 161447Z 19001KT 20/16 A30 RMK A01 T02020161  RH  077%=      5-min Rain = 0
KTH1 161448Z 19001KT 20/16 A30 RMK A01 T02020161  RH  077%=      5-min Rain = 0
KTH1 161449Z 22003KT 20/16 A30 RMK A01 T02020162  RH  078%=      5-min Rain = 0
KTH1 161450Z 25003KT 20/16 A30 RMK A01 T02030157  RH  075%=      5-min Rain = 0
KTH1 161451Z 25004KT 20/16 A3001 RMK A01 T02030155  RH  074%=      5-min Rain = 0
KTH1 161452Z 26005KT 20/16 A3001 RMK A01 T02030158  RH  075%=      5-min Rain = 0
KTH1 161453Z 25005KT 20/16 A3001 RMK A01 T02030161  RH  077%=      5-min Rain = 0
KTH1 161454Z 26005KT 20/16 A3001 RMK A01 T02040163  RH  077%=      5-min Rain = 0
KTH1 161455Z 27003KT 20/17 A3001 RMK A01 T02040167  RH  079%=      5-min Rain = 0
KTH1 161456Z 29002KT 21/16 A3001 RMK A01 T02050164  RH  078%=      5-min Rain = 0
KTH1 161457Z 29003KT 21/16 A3001 RMK A01 T02060162  RH  076%=      5-min Rain = 0
KTH1 161458Z 28003KT 21/16 A3001 RMK A01 T02060161  RH  076%=      5-min Rain = 0
KTH1 161459Z 30003KT 21/16 A3001 RMK A01 T02060162  RH  076%=      5-min Rain = 0
KTH1 161500Z 30003KT 21/16 A3001 RMK A01 T02070162  RH  075%=      5-min Rain = 0
KTH1 161501Z 31003KT 21/16 A3001 RMK A01 T02070159  RH  074%=      5-min Rain = 0
KTH1 161502Z 35002KT 21/16 A3001 RMK A01 T02080162  RH  075%=      5-min Rain = 0
KTH1 161503Z 00004KT 21/16 A3001 RMK A01 T02080162  RH  075%=      5-min Rain = 0
KTH1 161504Z 35004KT 21/16 A3001 RMK A01 T02080159  RH  074%=      5-min Rain = 0
KTH1 161505Z 00004KT 21/16 A3001 RMK A01 T02090161  RH  074%=      5-min Rain = 0
KTH1 161506Z 01004KT 21/16 A3001 RMK A01 T02090162  RH  075%=      5-min Rain = 0
KTH1 161507Z 36004KT 21/16 A3002 RMK A01 T02090162  RH  074%=      5-min Rain = 0
KTH1 161508Z 35004KT 21/16 A3002 RMK A01 T02090163  RH  075%=      5-min Rain = 0
KTH1 161509Z 36006KT 21/16 A3002 RMK A01 T02090162  RH  074%=      5-min Rain = 0
KTH1 161510Z 35004KT 21/17 A3002 RMK A01 T02090165  RH  076%=      5-min Rain = 0
KTH1 161511Z 35005KT 21/17 A3002 RMK A01 T02100166  RH  076%=      5-min Rain = 0
KTH1 161512Z 35005KT 21/16 A3002 RMK A01 T02110163  RH  074%=      5-min Rain = 0
KTH1 161513Z 35005KT 21/16 A3003 RMK A01 T02110164  RH  074%=      5-min Rain = 0
KTH1 161514Z 02003KT 21/17 A3003 RMK A01 T02120167  RH  075%=      5-min Rain = 0
KTH1 161515Z 36004KT 21/17 A3003 RMK A01 T02140172  RH  077%=      5-min Rain = 0
KTH1 161516Z 00005KT 22/17 A3003 RMK A01 T02150166  RH  073%=      5-min Rain = 0
KTH1 161517Z 36006KT 22/17 A3003 RMK A01 T02160167  RH  074%=      5-min Rain = 0
KTH1 161518Z 01006KT 22/17 A3003 RMK A01 T02160165  RH  073%=      5-min Rain = 0
KTH1 161519Z 36007KT 22/17 A3003 RMK A01 T02160166  RH  073%=      5-min Rain = 0
KTH1 161520Z 36006KT 22/17 A3003 RMK A01 T02150165  RH  073%=      5-min Rain = 0
KTH1 161521Z 35006KT 22/17 A3003 RMK A01 T02150167  RH  074%=      5-min Rain = 0
KTH1 161522Z 36007KT 22/17 A3003 RMK A01 T02150166  RH  074%=      5-min Rain = 0
KTH1 161523Z 35007KT 22/17 A3003 RMK A01 T02150165  RH  073%=      5-min Rain = 0
KTH1 161524Z 35007KT 22/17 A3003 RMK A01 T02160165  RH  073%=      5-min Rain = 0
KTH1 161525Z 36007KT 22/16 A3003 RMK A01 T02160164  RH  072%=      5-min Rain = 0
KTH1 161526Z 00007KT 22/17 A3003 RMK A01 T02170165  RH  072%=      5-min Rain = 0
KTH1 161527Z 36008KT 22/17 A3003 RMK A01 T02180166  RH  072%=      5-min Rain = 0
KTH1 161528Z 35007KT 22/17 A3003 RMK A01 T02190167  RH  072%=      5-min Rain = 0
KTH1 161529Z 35005KT 22/17 A3003 RMK A01 T02200168  RH  072%=      5-min Rain = 0
KTH1 161530Z 35007KT 22/17 A3003 RMK A01 T02220168  RH  072%=      5-min Rain = 0
KTH1 161531Z 34005KT 22/17 A3003 RMK A01 T02240169  RH  071%=      5-min Rain = 0
KTH1 161532Z 00006KT 23/17 A3003 RMK A01 T02270172  RH  071%=      5-min Rain = 0
KTH1 161533Z 35006KT 23/17 A3003 RMK A01 T02290171  RH  070%=      5-min Rain = 0
KTH1 161534Z 00006KT 23/17 A3003 RMK A01 T02300167  RH  068%=      5-min Rain = 0
KTH1 161535Z 00005KT 23/17 A3003 RMK A01 T02300166  RH  067%=      5-min Rain = 0
KTH1 161536Z 02006KT 23/17 A3003 RMK A01 T02300168  RH  068%=      5-min Rain = 0
KTH1 161537Z 01008KT 23/16 A3002 RMK A01 T02290161  RH  065%=      5-min Rain = 0
KTH1 161538Z 02008KT 23/16 A3002 RMK A01 T02290157  RH  064%=      5-min Rain = 0
KTH1 161539Z 02006KT 23/16 A3002 RMK A01 T02290157  RH  064%=      5-min Rain = 0
KTH1 161540Z 01007KT 23/16 A3002 RMK A01 T02300158  RH  064%=      5-min Rain = 0
KTH1 161541Z 00007KT 23/16 A3002 RMK A01 T02320159  RH  064%=      5-min Rain = 0
KTH1 161542Z 00007KT 23/16 A3002 RMK A01 T02330158  RH  063%=      5-min Rain = 0
KTH1 161543Z 00008KT 23/16 A3002 RMK A01 T02340161  RH  063%=      5-min Rain = 0
KTH1 161544Z 01008KT 24/16 A3002 RMK A01 T02350161  RH  063%=      5-min Rain = 0
KTH1 161545Z 02007KT 24/16 A3002 RMK A01 T02360162  RH  063%=      5-min Rain = 0
KTH1 161546Z 02008KT 24/16 A3002 RMK A01 T02370163  RH  063%=      5-min Rain = 0
KTH1 161547Z 03008KT 24/16 A3002 RMK A01 T02370158  RH  061%=      5-min Rain = 0
KTH1 161548Z 04009KT 24/16 A3002 RMK A01 T02360161  RH  063%=      5-min Rain = 0
KTH1 161549Z 04008KT 24/16 A3002 RMK A01 T02360159  RH  062%=      5-min Rain = 0
KTH1 161550Z 04007KT 24/16 A3001 RMK A01 T02360159  RH  062%=      5-min Rain = 0
KTH1 161551Z 03006KT 24/16 A3001 RMK A01 T02360162  RH  063%=      5-min Rain = 0
KTH1 161552Z 36006KT 24/17 A3001 RMK A01 T02380169  RH  065%=      5-min Rain = 0
KTH1 161553Z 02005KT 24/17 A3001 RMK A01 T02400165  RH  063%=      5-min Rain = 0
KTH1 161554Z 03007KT 24/17 A3001 RMK A01 T02410168  RH  064%=      5-min Rain = 0
KTH1 161555Z 01007KT 24/16 A3001 RMK A01 T02420164  RH  061%=      5-min Rain = 0
KTH1 161556Z 01005KT 24/16 A3001 RMK A01 T02410163  RH  062%=      5-min Rain = 0
KTH1 161557Z 05004KT 24/16 A3001 RMK A01 T02410163  RH  062%=      5-min Rain = 0
KTH1 161558Z 06003KT 24/17 A3001 RMK A01 T02410167  RH  063%=      5-min Rain = 0
KTH1 161559Z 04006KT 24/17 A3001 RMK A01 T02440168  RH  063%=      5-min Rain = 0
KTH1 161600Z 04007KT 25/16 A3001 RMK A01 T02450163  RH  060%=      5-min Rain = 0
KTH1 161601Z 03006KT 24/16 A3001 RMK A01 T02440163  RH  060%=      5-min Rain = 0
KTH1 161602Z 03007KT 24/16 A3001 RMK A01 T02440163  RH  060%=      5-min Rain = 0
KTH1 161603Z 06005KT 24/16 A3001 RMK A01 T02430161  RH  060%=      5-min Rain = 0
KTH1 161604Z 09005KT 24/16 A3001 RMK A01 T02430163  RH  061%=      5-min Rain = 0
KTH1 161605Z 07006KT 24/17 A3001 RMK A01 T02430165  RH  062%=      5-min Rain = 0
KTH1 161606Z 08006KT 25/16 A3001 RMK A01 T02450162  RH  060%=      5-min Rain = 0
KTH1 161607Z 08006KT 25/16 A3001 RMK A01 T02460163  RH  060%=      5-min Rain = 0
KTH1 161608Z 08006KT 25/16 A3001 RMK A01 T02470163  RH  060%=      5-min Rain = 0
KTH1 161609Z 09006KT 25/16 A3001 RMK A01 T02480162  RH  059%=      5-min Rain = 0
KTH1 161610Z 08005KT 25/16 A3001 RMK A01 T02490162  RH  058%=      5-min Rain = 0
KTH1 161611Z 06004KT 25/17 A3001 RMK A01 T02490168  RH  061%=      5-min Rain = 0
KTH1 161612Z 04005KT 25/17 A3001 RMK A01 T02500166  RH  059%=      5-min Rain = 0
KTH1 161613Z 06004KT 25/17 A3001 RMK A01 T02500167  RH  060%=      5-min Rain = 0
KTH1 161614Z 06006KT 25/16 A3001 RMK A01 T02510163  RH  058%=      5-min Rain = 0
KTH1 161615Z 07006KT 25/16 A3001 RMK A01 T02520162  RH  057%=      5-min Rain = 0
KTH1 161616Z 06005KT 25/16 A3001 RMK A01 T02530163  RH  058%=      5-min Rain = 0
KTH1 161617Z 07006KT 25/16 A3001 RMK A01 T02530163  RH  057%=      5-min Rain = 0
KTH1 161618Z 07006KT 25/16 A3001 RMK A01 T02530158  RH  055%=      5-min Rain = 0
KTH1 161619Z 06006KT 25/16 A3001 RMK A01 T02520159  RH  056%=      5-min Rain = 0
KTH1 161620Z 04004KT 25/17 A3001 RMK A01 T02520167  RH  059%=      5-min Rain = 0
KTH1 161621Z 03005KT 25/16 A3001 RMK A01 T02540158  RH  055%=      5-min Rain = 0
KTH1 161622Z 05003KT 25/16 A3001 RMK A01 T02540160  RH  056%=      5-min Rain = 0
KTH1 161623Z 08005KT 25/16 A3001 RMK A01 T02530160  RH  057%=      5-min Rain = 0
KTH1 161624Z 06004KT 25/17 A3001 RMK A01 T02530166  RH  059%=      5-min Rain = 0
KTH1 161625Z 03006KT 26/16 A3001 RMK A01 T02550163  RH  057%=      5-min Rain = 0
KTH1 161626Z 04007KT 26/16 A3002 RMK A01 T02560162  RH  056%=      5-min Rain = 0
KTH1 161627Z 03006KT 26/16 A3002 RMK A01 T02550161  RH  056%=      5-min Rain = 0
KTH1 161628Z 04007KT 26/17 A3002 RMK A01 T02550166  RH  058%=      5-min Rain = 0
KTH1 161629Z 03008KT 26/16 A3002 RMK A01 T02570164  RH  056%=      5-min Rain = 0
KTH1 161630Z 02009KT 26/16 A3002 RMK A01 T02570162  RH  056%=      5-min Rain = 0
KTH1 161631Z 04009KT 26/16 A3002 RMK A01 T02560160  RH  055%=      5-min Rain = 0
KTH1 161632Z 04005KT 26/16 A3002 RMK A01 T02550160  RH  056%=      5-min Rain = 0
KTH1 161633Z 04005KT 26/17 A3002 RMK A01 T02560171  RH  059%=      5-min Rain = 0
KTH1 161634Z 05005KT 26/16 A3002 RMK A01 T02590160  RH  054%=      5-min Rain = 0
KTH1 161635Z 02004KT 26/16 A3002 RMK A01 T02590163  RH  056%=      5-min Rain = 0
KTH1 161636Z 03004KT 26/17 A3002 RMK A01 T02590165  RH  056%=      5-min Rain = 0
KTH1 161637Z 03002KT 26/17 A3002 RMK A01 T02600170  RH  058%=      5-min Rain = 0
KTH1 161638Z 05006KT 26/17 A3002 RMK A01 T02630170  RH  057%=      5-min Rain = 0
KTH1 161639Z 04008KT 26/17 A3002 RMK A01 T02630167  RH  055%=      5-min Rain = 0
KTH1 161640Z 04006KT 26/17 A3002 RMK A01 T02610165  RH  055%=      5-min Rain = 0
KTH1 161641Z 05007KT 26/17 A3002 RMK A01 T02580167  RH  057%=      5-min Rain = 0
KTH1 161642Z 04005KT 26/16 A3002 RMK A01 T02560164  RH  057%=      5-min Rain = 0
KTH1 161643Z 03004KT 26/17 A3002 RMK A01 T02550165  RH  057%=      5-min Rain = 0
KTH1 161644Z 04002KT 26/17 A3002 RMK A01 T02550170  RH  059%=      5-min Rain = 0
KTH1 161645Z 05004KT 26/17 A3001 RMK A01 T02570172  RH  059%=      5-min Rain = 0
KTH1 161646Z 05006KT 26/17 A3001 RMK A01 T02580167  RH  057%=      5-min Rain = 0
KTH1 161647Z 05005KT 26/17 A3001 RMK A01 T02580168  RH  057%=      5-min Rain = 0
KTH1 161648Z 06005KT 26/17 A3001 RMK A01 T02580168  RH  057%=      5-min Rain = 0
KTH1 161649Z 03005KT 26/17 A3002 RMK A01 T02570167  RH  057%=      5-min Rain = 0
KTH1 161650Z 03005KT 26/17 A3002 RMK A01 T02560166  RH  058%=      5-min Rain = 0
KTH1 161651Z 03008KT 26/17 A3002 RMK A01 T02550169  RH  059%=      5-min Rain = 0
KTH1 161652Z 02006KT 26/17 A3002 RMK A01 T02570165  RH  057%=      5-min Rain = 0
KTH1 161653Z 04004KT 26/17 A3002 RMK A01 T02600168  RH  057%=      5-min Rain = 0
KTH1 161654Z 05006KT 26/18 A3002 RMK A01 T02640175  RH  058%=      5-min Rain = 0
KTH1 161655Z 03008KT 27/17 A3002 RMK A01 T02670171  RH  056%=      5-min Rain = 0
KTH1 161656Z 02007KT 27/17 A3001 RMK A01 T02670171  RH  055%=      5-min Rain = 0
KTH1 161657Z 01008G13KT 27/17 A3001 RMK A01 T02650166  RH  055%=      5-min Rain = 0
KTH1 161658Z 02006KT 26/17 A3001 RMK A01 T02630169  RH  056%=      5-min Rain = 0
KTH1 161659Z 02008KT 26/17 A3001 RMK A01 T02620169  RH  056%=      5-min Rain = 0
KTH1 161700Z 02008KT 26/17 A3001 RMK A01 T02610165  RH  055%=      5-min Rain = 0
KTH1 161701Z 01005KT 26/16 A3001 RMK A01 T02600163  RH  055%=      5-min Rain = 0
KTH1 161702Z 00008G13KT 26/17 A3001 RMK A01 T02590165  RH  056%=      5-min Rain = 0
KTH1 161703Z 03008KT 26/17 A3001 RMK A01 T02590166  RH  056%=      5-min Rain = 0
KTH1 161704Z 03006KT 26/17 A3001 RMK A01 T02600168  RH  057%=      5-min Rain = 0
KTH1 161705Z 04007KT 26/17 A3001 RMK A01 T02600169  RH  057%=      5-min Rain = 0
KTH1 161706Z 04012KT 26/16 A3001 RMK A01 T02610163  RH  055%=      5-min Rain = 0
KTH1 161707Z 03010KT 26/17 A3001 RMK A01 T02600165  RH  056%=      5-min Rain = 0
KTH1 161708Z 04009G14KT 26/17 A3001 RMK A01 T02580165  RH  056%=      5-min Rain = 0
KTH1 161709Z 02006KT 26/16 A3001 RMK A01 T02580164  RH  056%=      5-min Rain = 0
KTH1 161710Z 02007KT 26/17 A3001 RMK A01 T02570166  RH  057%=      5-min Rain = 0
KTH1 161711Z 04010KT 26/16 A3001 RMK A01 T02570161  RH  055%=      5-min Rain = 0
KTH1 161712Z 03008KT 26/16 A3001 RMK A01 T02570160  RH  055%=      5-min Rain = 0
KTH1 161713Z 03007KT 26/16 A3001 RMK A01 T02570160  RH  055%=      5-min Rain = 0
KTH1 161714Z 03006KT 26/16 A3001 RMK A01 T02570158  RH  054%=      5-min Rain = 0
KTH1 161715Z 05005KT 26/16 A3001 RMK A01 T02570159  RH  055%=      5-min Rain = 0
KTH1 161716Z 05006KT 26/16 A3001 RMK A01 T02570162  RH  056%=      5-min Rain = 0
KTH1 161717Z 05006KT 26/16 A3001 RMK A01 T02580163  RH  056%=      5-min Rain = 0
KTH1 161718Z 04007KT 26/16 A3001 RMK A01 T02590163  RH  055%=      5-min Rain = 0
KTH1 161719Z 03006KT 26/16 A3001 RMK A01 T02590163  RH  055%=      5-min Rain = 0
KTH1 161720Z 05006KT 26/16 A3001 RMK A01 T02590161  RH  055%=      5-min Rain = 0
KTH1 161721Z 03006KT 26/16 A3001 RMK A01 T02590161  RH  055%=      5-min Rain = 0
KTH1 161722Z 03005KT 26/16 A3001 RMK A01 T02590162  RH  055%=      5-min Rain = 0
KTH1 161723Z 02005KT 26/16 A3001 RMK A01 T02590162  RH  055%=      5-min Rain = 0
KTH1 161724Z 02003KT 26/17 A3001 RMK A01 T02600166  RH  056%=      5-min Rain = 0
KTH1 161725Z 02004KT 26/16 A3001 RMK A01 T02610164  RH  055%=      5-min Rain = 0
KTH1 161726Z 02006KT 26/17 A3001 RMK A01 T02610167  RH  056%=      5-min Rain = 0
KTH1 161727Z 03007KT 26/16 A3001 RMK A01 T02620160  RH  053%=      5-min Rain = 0
KTH1 161728Z 03005KT 26/16 A3002 RMK A01 T02620161  RH  054%=      5-min Rain = 0
KTH1 161729Z 03006KT 26/16 A3002 RMK A01 T02620160  RH  053%=      5-min Rain = 0
KTH1 161730Z 01003KT 26/16 A3002 RMK A01 T02620163  RH  054%=      5-min Rain = 0
KTH1 161731Z 35004KT 26/17 A3002 RMK A01 T02610165  RH  055%=      5-min Rain = 0
KTH1 161732Z 35006KT 26/16 A3002 RMK A01 T02610160  RH  054%=      5-min Rain = 0
KTH1 161733Z 35006KT 26/16 A3002 RMK A01 T02610158  RH  053%=      5-min Rain = 0
KTH1 161734Z 35007KT 26/16 A3002 RMK A01 T02610155  RH  052%=      5-min Rain = 0
KTH1 161735Z 35008KT 26/16 A3003 RMK A01 T02600155  RH  052%=      5-min Rain = 0
KTH1 161736Z 35006KT 26/16 A3003 RMK A01 T02600157  RH  053%=      5-min Rain = 0
KTH1 161737Z 32003KT 26/16 A3003 RMK A01 T02600161  RH  054%=      5-min Rain = 0
KTH1 161738Z 35004KT 26/16 A3003 RMK A01 T02600161  RH  054%=      5-min Rain = 0
KTH1 161739Z 35004KT 26/16 A3003 RMK A01 T02600162  RH  054%=      5-min Rain = 0
KTH1 161740Z 00005KT 26/16 A3003 RMK A01 T02610163  RH  055%=      5-min Rain = 0
KTH1 161741Z 35005KT 26/16 A3002 RMK A01 T02610161  RH  054%=      5-min Rain = 0
KTH1 161742Z 35006KT 26/16 A3002 RMK A01 T02610161  RH  054%=      5-min Rain = 0
KTH1 161743Z 35007KT 26/16 A3002 RMK A01 T02620159  RH  053%=      5-min Rain = 0
KTH1 161744Z 36005KT 26/16 A3002 RMK A01 T02620158  RH  053%=      5-min Rain = 0
KTH1 161745Z 00006KT 26/16 A3002 RMK A01 T02620159  RH  053%=      5-min Rain = 0
KTH1 161746Z 00006KT 26/16 A3002 RMK A01 T02620157  RH  052%=      5-min Rain = 0
KTH1 161747Z 35007KT 26/16 A3002 RMK A01 T02620156  RH  052%=      5-min Rain = 0
KTH1 161748Z 01007KT 26/16 A3002 RMK A01 T02620155  RH  052%=      5-min Rain = 0
KTH1 161749Z 01005KT 26/16 A3002 RMK A01 T02620155  RH  052%=      5-min Rain = 0
KTH1 161750Z 36005KT 26/16 A3001 RMK A01 T02620157  RH  052%=      5-min Rain = 0
KTH1 161751Z 00003KT 26/16 A3001 RMK A01 T02620160  RH  053%=      5-min Rain = 0
KTH1 161752Z 01003KT 26/16 A3001 RMK A01 T02630162  RH  054%=      5-min Rain = 0
KTH1 161753Z 02004KT 26/16 A3001 RMK A01 T02630159  RH  053%=      5-min Rain = 0
KTH1 161754Z 04006KT 26/16 A3001 RMK A01 T02630162  RH  054%=      5-min Rain = 0
KTH1 161755Z 04007KT 26/16 A3001 RMK A01 T02630161  RH  053%=      5-min Rain = 0
KTH1 161756Z 04006KT 26/16 A3001 RMK A01 T02630161  RH  054%=      5-min Rain = 0
KTH1 161757Z 05005KT 26/16 A30 RMK A01 T02620162  RH  054%=      5-min Rain = 0
KTH1 161758Z 04008KT 26/16 A30 RMK A01 T02620162  RH  054%=      5-min Rain = 0
KTH1 161759Z 04007KT 26/16 A30 RMK A01 T02610157  RH  052%=      5-min Rain = 0
KTH1 161800Z 03007KT 26/16 A30 RMK A01 T02610157  RH  053%=      5-min Rain = 0
KTH1 161801Z 03008KT 26/16 A30 RMK A01 T02610156  RH  053%=      5-min Rain = 0
KTH1 161802Z 02009KT 26/16 A30 RMK A01 T02600156  RH  053%=      5-min Rain = 0
KTH1 161803Z 02007KT 26/16 A30 RMK A01 T02600157  RH  053%=      5-min Rain = 0
KTH1 161804Z 02007KT 26/16 A30 RMK A01 T02590155  RH  053%=      5-min Rain = 0
KTH1 161805Z 02007KT 26/15 A30 RMK A01 T02590151  RH  051%=      5-min Rain = 0
KTH1 161806Z 03005KT 26/15 A30 RMK A01 T02590152  RH  052%=      5-min Rain = 0
KTH1 161807Z 02006KT 26/15 A30 RMK A01 T02600154  RH  052%=      5-min Rain = 0
KTH1 161808Z 02006KT 26/15 A30 RMK A01 T02600153  RH  052%=      5-min Rain = 0
KTH1 161809Z 03005KT 26/16 A30 RMK A01 T02600155  RH  052%=      5-min Rain = 0
KTH1 161810Z 04003KT 26/16 A30 RMK A01 T02610159  RH  053%=      5-min Rain = 0
KTH1 161811Z 04004KT 26/16 A30 RMK A01 T02620161  RH  054%=      5-min Rain = 0
KTH1 161812Z 05003KT 26/17 A30 RMK A01 T02630167  RH  055%=      5-min Rain = 0
KTH1 161813Z 05003KT 27/17 A30 RMK A01 T02650165  RH  054%=      5-min Rain = 0
KTH1 161814Z 06006KT 27/17 A2999 RMK A01 T02680166  RH  054%=      5-min Rain = 0
KTH1 161815Z 05007KT 27/16 A2999 RMK A01 T02700159  RH  051%=      5-min Rain = 0
KTH1 161816Z 05005KT 27/16 A2999 RMK A01 T02710162  RH  051%=      5-min Rain = 0
KTH1 161817Z 05006KT 27/16 A2999 RMK A01 T02710162  RH  051%=      5-min Rain = 0
KTH1 161818Z 06005KT 27/17 A2999 RMK A01 T02720166  RH  053%=      5-min Rain = 0
KTH1 161819Z 05005KT 27/17 A2999 RMK A01 T02720167  RH  052%=      5-min Rain = 0
KTH1 161820Z 05005KT 27/17 A2999 RMK A01 T02740171  RH  053%=      5-min Rain = 0
KTH1 161821Z 03006KT 28/17 A2999 RMK A01 T02770168  RH  052%=      5-min Rain = 0
KTH1 161822Z 03007KT 28/16 A2999 RMK A01 T02770163  RH  050%=      5-min Rain = 0
KTH1 161823Z 05005KT 28/16 A2999 RMK A01 T02760162  RH  050%=      5-min Rain = 0
KTH1 161824Z 04003KT 27/17 A2999 RMK A01 T02740167  RH  052%=      5-min Rain = 0
KTH1 161825Z 03005KT 27/16 A2999 RMK A01 T02740163  RH  051%=      5-min Rain = 0
KTH1 161826Z 02005KT 27/16 A2999 RMK A01 T02730164  RH  051%=      5-min Rain = 0
KTH1 161827Z 02007KT 27/17 A2999 RMK A01 T02720167  RH  053%=      5-min Rain = 0
KTH1 161828Z 04008KT 27/16 A2999 RMK A01 T02730161  RH  051%=      5-min Rain = 0
KTH1 161829Z 02008KT 27/16 A2999 RMK A01 T02720161  RH  050%=      5-min Rain = 0
KTH1 161830Z 02006KT 27/16 A2999 RMK A01 T02720160  RH  051%=      5-min Rain = 0
KTH1 161831Z 03005KT 27/16 A2999 RMK A01 T02710162  RH  051%=      5-min Rain = 0
KTH1 161832Z 03005KT 27/16 A2999 RMK A01 T02710164  RH  052%=      5-min Rain = 0
KTH1 161833Z 03005KT 27/16 A2999 RMK A01 T02720163  RH  051%=      5-min Rain = 0
KTH1 161834Z 03004KT 27/17 A2999 RMK A01 T02720166  RH  052%=      5-min Rain = 0
KTH1 161835Z 01007KT 27/17 A2999 RMK A01 T02730165  RH  052%=      5-min Rain = 0
KTH1 161836Z 01005KT 27/16 A2998 RMK A01 T02740160  RH  050%=      5-min Rain = 0
KTH1 161837Z 02005KT 28/17 A2998 RMK A01 T02750166  RH  051%=      5-min Rain = 0
KTH1 161838Z 01007KT 28/16 A2998 RMK A01 T02770162  RH  049%=      5-min Rain = 0
KTH1 161839Z 02006KT 28/16 A2998 RMK A01 T02780161  RH  049%=      5-min Rain = 0
KTH1 161840Z 00005KT 28/17 A2998 RMK A01 T02790169  RH  051%=      5-min Rain = 0
KTH1 161841Z 35007KT 28/17 A2998 RMK A01 T02820165  RH  049%=      5-min Rain = 0
KTH1 161842Z 00006KT 28/16 A2998 RMK A01 T02820160  RH  048%=      5-min Rain = 0
KTH1 161843Z 02007KT 28/16 A2998 RMK A01 T02810163  RH  049%=      5-min Rain = 0
KTH1 161844Z 02007KT 28/15 A2998 RMK A01 T02790154  RH  046%=      5-min Rain = 0
KTH1 161845Z 01007KT 28/15 A2998 RMK A01 T02760152  RH  047%=      5-min Rain = 0
KTH1 161846Z 01006KT 27/15 A2998 RMK A01 T02740152  RH  047%=      5-min Rain = 0
KTH1 161847Z 04005KT 27/16 A2998 RMK A01 T02730156  RH  049%=      5-min Rain = 0
KTH1 161848Z 02005KT 27/16 A2997 RMK A01 T02730157  RH  049%=      5-min Rain = 0
KTH1 161849Z 03005KT 27/16 A2997 RMK A01 T02740161  RH  050%=      5-min Rain = 0
KTH1 161850Z 04004KT 28/16 A2997 RMK A01 T02760160  RH  049%=      5-min Rain = 0
KTH1 161851Z 01005KT 28/16 A2997 RMK A01 T02780160  RH  049%=      5-min Rain = 0
KTH1 161852Z 01007KT 28/16 A2997 RMK A01 T02790156  RH  047%=      5-min Rain = 0
KTH1 161853Z 00007KT 28/15 A2997 RMK A01 T02790151  RH  046%=      5-min Rain = 0
KTH1 161854Z 01006KT 28/15 A2997 RMK A01 T02790151  RH  046%=      5-min Rain = 0
KTH1 161855Z 35006KT 28/15 A2997 RMK A01 T02780154  RH  047%=      5-min Rain = 0
KTH1 161856Z 35008KT 28/15 A2997 RMK A01 T02780149  RH  045%=      5-min Rain = 0
KTH1 161857Z 00007KT 28/15 A2997 RMK A01 T02770146  RH  045%=      5-min Rain = 0
KTH1 161858Z 02007KT 28/15 A2997 RMK A01 T02760152  RH  047%=      5-min Rain = 0
KTH1 161859Z 03006KT 28/15 A2997 RMK A01 T02780152  RH  046%=      5-min Rain = 0
KTH1 161900Z 03005KT 28/15 A2997 RMK A01 T02790152  RH  046%=      5-min Rain = 0
KTH1 161901Z 03005KT 28/16 A2997 RMK A01 T02810157  RH  047%=      5-min Rain = 0
KTH1 161902Z 04006KT 28/16 A2997 RMK A01 T02830160  RH  047%=      5-min Rain = 0
KTH1 161903Z 04007KT 29/16 A2997 RMK A01 T02850155  RH  045%=      5-min Rain = 0
KTH1 161904Z 04006KT 28/16 A2997 RMK A01 T02840155  RH  045%=      5-min Rain = 0
KTH1 161905Z 04008KT 28/15 A2997 RMK A01 T02820154  RH  046%=      5-min Rain = 0
KTH1 161906Z 04007KT 28/15 A2997 RMK A01 T02810154  RH  046%=      5-min Rain = 0
KTH1 161907Z 02005KT 28/16 A2997 RMK A01 T02790155  RH  047%=      5-min Rain = 0
KTH1 161908Z 03004KT 28/15 A2997 RMK A01 T02780154  RH  047%=      5-min Rain = 0
KTH1 161909Z 05003KT 28/15 A2997 RMK A01 T02770152  RH  047%=      5-min Rain = 0
KTH1 161910Z 04002KT 28/16 A2997 RMK A01 T02770156  RH  048%=      5-min Rain = 0
KTH1 161911Z 01003KT 28/16 A2997 RMK A01 T02780164  RH  050%=      5-min Rain = 0
KTH1 161912Z 02001KT 28/16 A2997 RMK A01 T02810164  RH  049%=      5-min Rain = 0
KTH1 161913Z 04003KT 29/17 A2997 RMK A01 T02850167  RH  049%=      5-min Rain = 0
KTH1 161914Z 01005KT 29/16 A2997 RMK A01 T02880156  RH  045%=      5-min Rain = 0
KTH1 161915Z 36004KT 29/16 A2997 RMK A01 T02860161  RH  047%=      5-min Rain = 0
KTH1 161916Z 34004KT 29/16 A2997 RMK A01 T02870161  RH  046%=      5-min Rain = 0
KTH1 161917Z 32004KT 29/16 A2997 RMK A01 T02880159  RH  046%=      5-min Rain = 0
KTH1 161918Z 33002KT 29/15 A2997 RMK A01 T02890154  RH  044%=      5-min Rain = 0
KTH1 161919Z 01001KT 29/17 A2997 RMK A01 T02890167  RH  048%=      5-min Rain = 0
KTH1 161920Z 08001KT 29/16 A2997 RMK A01 T02900163  RH  046%=      5-min Rain = 0
KTH1 161921Z 10005KT 29/16 A2997 RMK A01 T02920161  RH  045%=      5-min Rain = 0
KTH1 161922Z 10004KT 29/16 A2997 RMK A01 T02930158  RH  044%=      5-min Rain = 0
KTH1 161923Z 07003KT 29/16 A2997 RMK A01 T02920158  RH  044%=      5-min Rain = 0
KTH1 161924Z 06003KT 29/16 A2997 RMK A01 T02910157  RH  044%=      5-min Rain = 0
KTH1 161925Z 10003KT 29/16 A2997 RMK A01 T02900155  RH  044%=      5-min Rain = 0
KTH1 161926Z 09004KT 29/16 A2996 RMK A01 T02890161  RH  046%=      5-min Rain = 0
KTH1 161927Z 10004KT 29/16 A2996 RMK A01 T02900155  RH  044%=      5-min Rain = 0
KTH1 161928Z 09003KT 29/16 A2996 RMK A01 T02900156  RH  044%=      5-min Rain = 0
KTH1 161929Z 10003KT 29/15 A2996 RMK A01 T02900154  RH  044%=      5-min Rain = 0
KTH1 161930Z 11002KT 29/15 A2996 RMK A01 T02890152  RH  043%=      5-min Rain = 0
KTH1 161931Z 09001KT 29/16 A2996 RMK A01 T02890155  RH  044%=      5-min Rain = 0
KTH1 161932Z 25000KT 29/15 A2996 RMK A01 T02900148  RH  042%=      5-min Rain = 0
KTH1 161933Z 21000KT 29/15 A2996 RMK A01 T02900151  RH  043%=      5-min Rain = 0
KTH1 161934Z 10000KT 29/16 A2996 RMK A01 T02900156  RH  044%=      5-min Rain = 0
KTH1 161935Z 04002KT 29/16 A2996 RMK A01 T02900155  RH  044%=      5-min Rain = 0
KTH1 161936Z 08002KT 29/16 A2996 RMK A01 T02910159  RH  045%=      5-min Rain = 0
KTH1 161937Z 10004KT 29/17 A2996 RMK A01 T02930168  RH  047%=      5-min Rain = 0
KTH1 161938Z 13003KT 30/15 A2996 RMK A01 T02950154  RH  042%=      5-min Rain = 0
KTH1 161939Z 09004KT 30/16 A2995 RMK A01 T02950159  RH  044%=      5-min Rain = 0
KTH1 161940Z 08002KT 30/16 A2995 RMK A01 T02950158  RH  043%=      5-min Rain = 0
KTH1 161941Z 09003KT 30/16 A2995 RMK A01 T02950161  RH  045%=      5-min Rain = 0
KTH1 161942Z 10004KT 30/16 A2995 RMK A01 T02950159  RH  044%=      5-min Rain = 0
KTH1 161943Z 09004KT 30/15 A2995 RMK A01 T02960153  RH  042%=      5-min Rain = 0
KTH1 161944Z 09004KT 30/16 A2995 RMK A01 T02960157  RH  043%=      5-min Rain = 0
KTH1 161945Z 08004KT 30/16 A2995 RMK A01 T02960155  RH  042%=      5-min Rain = 0
KTH1 161946Z 08002KT 30/16 A2995 RMK A01 T02960156  RH  043%=      5-min Rain = 0
KTH1 161947Z 10001KT 30/16 A2995 RMK A01 T02970155  RH  042%=      5-min Rain = 0
KTH1 161948Z 03000KT 30/16 A2995 RMK A01 T02970156  RH  043%=      5-min Rain = 0
KTH1 161949Z 08000KT 30/16 A2995 RMK A01 T02980155  RH  042%=      5-min Rain = 0
KTH1 161950Z 05000KT 30/15 A2995 RMK A01 T02980149  RH  040%=      5-min Rain = 0
KTH1 161951Z 05001KT 30/16 A2995 RMK A01 T02990156  RH  042%=      5-min Rain = 0
KTH1 161952Z 35001KT 30/15 A2995 RMK A01 T03000154  RH  041%=      5-min Rain = 0
KTH1 161953Z 08001KT 30/17 A2995 RMK A01 T03010166  RH  044%=      5-min Rain = 0
KTH1 161954Z 15003KT 30/17 A2995 RMK A01 T03030168  RH  044%=      5-min Rain = 0
KTH1 161955Z 13004KT 31/17 A2995 RMK A01 T03050168  RH  044%=      5-min Rain = 0
KTH1 161956Z 12002KT 30/16 A2995 RMK A01 T03040163  RH  043%=      5-min Rain = 0
KTH1 161957Z 11001KT 30/17 A2995 RMK A01 T03030167  RH  044%=      5-min Rain = 0
KTH1 161958Z 08003KT 30/17 A2995 RMK A01 T03020167  RH  044%=      5-min Rain = 0
KTH1 161959Z 08005KT 30/16 A2995 RMK A01 T03010160  RH  043%=      5-min Rain = 0
KTH1 162000Z 09006KT 30/16 A2995 RMK A01 T02990162  RH  044%=      5-min Rain = 0
KTH1 162001Z 10005KT 30/16 A2995 RMK A01 T02990160  RH  043%=      5-min Rain = 0
KTH1 162002Z 10005KT 30/16 A2995 RMK A01 T02990162  RH  044%=      5-min Rain = 0
KTH1 162003Z 10005KT 30/16 A2995 RMK A01 T02990160  RH  043%=      5-min Rain = 0
KTH1 162004Z 10004KT 30/16 A2995 RMK A01 T02990156  RH  042%=      5-min Rain = 0
KTH1 162005Z 10003KT 30/16 A2995 RMK A01 T02980157  RH  042%=      5-min Rain = 0
KTH1 162006Z 10003KT 30/16 A2994 RMK A01 T02980157  RH  042%=      5-min Rain = 0
KTH1 162007Z 10004KT 30/16 A2994 RMK A01 T02990164  RH  044%=      5-min Rain = 0
KTH1 162008Z 06004KT 30/16 A2994 RMK A01 T03010159  RH  042%=      5-min Rain = 0
KTH1 162009Z 05004KT 30/16 A2994 RMK A01 T03020162  RH  043%=      5-min Rain = 0
KTH1 162010Z 02002KT 30/16 A2994 RMK A01 T03020160  RH  042%=      5-min Rain = 0
KTH1 162011Z 05002KT 30/15 A2994 RMK A01 T03010154  RH  041%=      5-min Rain = 0
KTH1 162012Z 08004KT 30/16 A2994 RMK A01 T03010158  RH  042%=      5-min Rain = 0
KTH1 162013Z 07003KT 30/16 A2994 RMK A01 T03010156  RH  042%=      5-min Rain = 0
KTH1 162014Z 05002KT 30/16 A2994 RMK A01 T03010156  RH  042%=      5-min Rain = 0
KTH1 162015Z 02002KT 30/16 A2994 RMK A01 T03010160  RH  042%=      5-min Rain = 0
KTH1 162016Z 36001KT 30/16 A2994 RMK A01 T03020159  RH  042%=      5-min Rain = 0
KTH1 162017Z 34002KT 30/16 A2994 RMK A01 T03020160  RH  042%=      5-min Rain = 0
KTH1 162018Z 02003KT 30/16 A2994 RMK A01 T03030159  RH  042%=      5-min Rain = 0
KTH1 162019Z 06004KT 30/16 A2994 RMK A01 T03040158  RH  041%=      5-min Rain = 0
KTH1 162020Z 07002KT 31/15 A2994 RMK A01 T03050149  RH  039%=      5-min Rain = 0
KTH1 162021Z 12001KT 30/15 A2994 RMK A01 T03030146  RH  038%=      5-min Rain = 0
KTH1 162022Z 17001KT 30/15 A2994 RMK A01 T03030146  RH  039%=      5-min Rain = 0
KTH1 162023Z 10001KT 30/15 A2994 RMK A01 T03030150  RH  039%=      5-min Rain = 0
KTH1 162024Z 05003KT 31/15 A2993 RMK A01 T03050152  RH  040%=      5-min Rain = 0
KTH1 162025Z 05006KT 31/16 A2993 RMK A01 T03070162  RH  041%=      5-min Rain = 0
KTH1 162026Z 05004KT 31/15 A2993 RMK A01 T03090152  RH  039%=      5-min Rain = 0
KTH1 162027Z 06003KT 31/15 A2993 RMK A01 T03080150  RH  038%=      5-min Rain = 0
KTH1 162028Z 07003KT 31/15 A2993 RMK A01 T03070152  RH  039%=      5-min Rain = 0
KTH1 162029Z 12001KT 31/15 A2993 RMK A01 T03070149  RH  038%=      5-min Rain = 0
KTH1 162030Z 09000KT 31/15 A2993 RMK A01 T03070152  RH  039%=      5-min Rain = 0
KTH1 162031Z 15001KT 31/15 A2993 RMK A01 T03080152  RH  039%=      5-min Rain = 0
KTH1 162032Z 06001KT 31/16 A2993 RMK A01 T03100158  RH  040%=      5-min Rain = 0
KTH1 162033Z 04001KT 31/16 A2993 RMK A01 T03110155  RH  039%=      5-min Rain = 0
KTH1 162034Z 23000KT 31/15 A2993 RMK A01 T03110154  RH  039%=      5-min Rain = 0
KTH1 162035Z 27000KT 31/16 A2993 RMK A01 T03130156  RH  039%=      5-min Rain = 0
KTH1 162036Z 05002KT 32/16 A2993 RMK A01 T03150155  RH  038%=      5-min Rain = 0
KTH1 162037Z 04002KT 32/15 A2993 RMK A01 T03150147  RH  036%=      5-min Rain = 0
KTH1 162038Z 02001KT 31/15 A2993 RMK A01 T03140154  RH  038%=      5-min Rain = 0
KTH1 162039Z 34001KT 31/16 A2993 RMK A01 T03140160  RH  040%=      5-min Rain = 0
KTH1 162040Z 10002KT 32/15 A2993 RMK A01 T03160151  RH  037%=      5-min Rain = 0
KTH1 162041Z 03005KT 32/15 A2993 RMK A01 T03160148  RH  036%=      5-min Rain = 0
KTH1 162042Z 04005KT 32/15 A2993 RMK A01 T03160145  RH  036%=      5-min Rain = 0
KTH1 162043Z 04004KT 31/14 A2993 RMK A01 T03130139  RH  035%=      5-min Rain = 0
KTH1 162044Z 03001KT 31/14 A2993 RMK A01 T03110135  RH  034%=      5-min Rain = 0
KTH1 162045Z 06002KT 31/15 A2993 RMK A01 T03110148  RH  037%=      5-min Rain = 0
KTH1 162046Z 07002KT 31/14 A2993 RMK A01 T03110142  RH  036%=      5-min Rain = 0
KTH1 162047Z 02003KT 31/14 A2993 RMK A01 T03110144  RH  036%=      5-min Rain = 0
KTH1 162048Z 00003KT 31/15 A2993 RMK A01 T03110146  RH  037%=      5-min Rain = 0
KTH1 162049Z 03005KT 31/14 A2993 RMK A01 T03110141  RH  036%=      5-min Rain = 0
KTH1 162050Z 06006KT 31/15 A2993 RMK A01 T03120147  RH  037%=      5-min Rain = 0
KTH1 162051Z 06004KT 31/16 A2993 RMK A01 T03130159  RH  040%=      5-min Rain = 0
KTH1 162052Z 05006KT 32/16 A2993 RMK A01 T03150156  RH  038%=      5-min Rain = 0
KTH1 162053Z 06004KT 32/15 A2993 RMK A01 T03150149  RH  037%=      5-min Rain = 0
KTH1 162054Z 10002KT 31/15 A2993 RMK A01 T03130145  RH  036%=      5-min Rain = 0
KTH1 162055Z 11004KT 31/15 A2993 RMK A01 T03120153  RH  038%=      5-min Rain = 0
KTH1 162056Z 11003KT 31/15 A2993 RMK A01 T03130146  RH  036%=      5-min Rain = 0
KTH1 162057Z 11001KT 31/15 A2993 RMK A01 T03130151  RH  037%=      5-min Rain = 0
KTH1 162058Z 09001KT 32/15 A2993 RMK A01 T03150148  RH  036%=      5-min Rain = 0
KTH1 162059Z 11001KT 32/14 A2993 RMK A01 T03150143  RH  035%=      5-min Rain = 0
KTH1 162100Z 01001KT 31/16 A2993 RMK A01 T03140156  RH  039%=      5-min Rain = 0
KTH1 162101Z 05002KT 32/16 A2993 RMK A01 T03150158  RH  039%=      5-min Rain = 0
KTH1 162102Z 05005KT 32/16 A2993 RMK A01 T03170155  RH  038%=      5-min Rain = 0
KTH1 162103Z 04004KT 32/15 A2993 RMK A01 T03180146  RH  035%=      5-min Rain = 0
KTH1 162104Z 02002KT 32/14 A2993 RMK A01 T03180141  RH  034%=      5-min Rain = 0
KTH1 162105Z 02004KT 32/14 A2993 RMK A01 T03170144  RH  035%=      5-min Rain = 0
KTH1 162106Z 03004KT 32/14 A2993 RMK A01 T03160142  RH  035%=      5-min Rain = 0
KTH1 162107Z 02002KT 32/15 A2992 RMK A01 T03160149  RH  036%=      5-min Rain = 0
KTH1 162108Z 01002KT 32/15 A2992 RMK A01 T03160149  RH  036%=      5-min Rain = 0
KTH1 162109Z 04003KT 32/15 A2992 RMK A01 T03170152  RH  037%=      5-min Rain = 0
KTH1 162110Z 05005KT 32/15 A2992 RMK A01 T03180148  RH  036%=      5-min Rain = 0
KTH1 162111Z 05006KT 32/15 A2992 RMK A01 T03190150  RH  036%=      5-min Rain = 0
KTH1 162112Z 05006KT 32/14 A2992 RMK A01 T03190142  RH  034%=      5-min Rain = 0
KTH1 162113Z 06005KT 32/14 A2992 RMK A01 T03170144  RH  035%=      5-min Rain = 0
KTH1 162114Z 02004KT 32/15 A2992 RMK A01 T03170149  RH  036%=      5-min Rain = 0
KTH1 162115Z 01008KT 32/15 A2992 RMK A01 T03170146  RH  036%=      5-min Rain = 0
KTH1 162116Z 36006KT 32/15 A2992 RMK A01 T03170148  RH  036%=      5-min Rain = 0
KTH1 162117Z 36003KT 32/15 A2992 RMK A01 T03170148  RH  036%=      5-min Rain = 0
KTH1 162118Z 02006KT 32/15 A2992 RMK A01 T03170153  RH  037%=      5-min Rain = 0
KTH1 162119Z 02006KT 32/15 A2992 RMK A01 T03170146  RH  036%=      5-min Rain = 0
KTH1 162120Z 03004KT 32/15 A2992 RMK A01 T03180149  RH  036%=      5-min Rain = 0
KTH1 162121Z 04005KT 32/15 A2992 RMK A01 T03170146  RH  035%=      5-min Rain = 0
KTH1 162122Z 02004KT 32/14 A2992 RMK A01 T03170144  RH  035%=      5-min Rain = 0
KTH1 162123Z 02002KT 32/14 A2992 RMK A01 T03160140  RH  034%=      5-min Rain = 0
KTH1 162124Z 00003KT 32/15 A2992 RMK A01 T03160147  RH  036%=      5-min Rain = 0
KTH1 162125Z 00005KT 32/15 A2992 RMK A01 T03160148  RH  036%=      5-min Rain = 0
KTH1 162126Z 01006KT 32/15 A2992 RMK A01 T03170149  RH  036%=      5-min Rain = 0
KTH1 162127Z 04005KT 32/15 A2992 RMK A01 T03170151  RH  037%=      5-min Rain = 0
KTH1 162128Z 07009KT 32/15 A2992 RMK A01 T03180152  RH  037%=      5-min Rain = 0
KTH1 162129Z 08008KT 32/15 A2992 RMK A01 T03190146  RH  035%=      5-min Rain = 0
KTH1 162130Z 09009KT 32/15 A2991 RMK A01 T03200146  RH  035%=      5-min Rain = 0
KTH1 162131Z 06005KT 32/15 A2992 RMK A01 T03190153  RH  037%=      5-min Rain = 0
KTH1 162132Z 05005KT 32/16 A2992 RMK A01 T03200161  RH  038%=      5-min Rain = 0
KTH1 162133Z 04004KT 32/15 A2992 RMK A01 T03220154  RH  036%=      5-min Rain = 0
KTH1 162134Z 03004KT 32/16 A2992 RMK A01 T03220158  RH  037%=      5-min Rain = 0
KTH1 162135Z 03006KT 32/14 A2992 RMK A01 T03220143  RH  034%=      5-min Rain = 0
KTH1 162136Z 03008KT 32/15 A2992 RMK A01 T03200145  RH  035%=      5-min Rain = 0
KTH1 162137Z 02007KT 32/15 A2992 RMK A01 T03180146  RH  035%=      5-min Rain = 0
KTH1 162138Z 04008KT 32/15 A2991 RMK A01 T03180149  RH  036%=      5-min Rain = 0
KTH1 162139Z 01006KT 32/15 A2991 RMK A01 T03180146  RH  035%=      5-min Rain = 0
KTH1 162140Z 02005KT 32/14 A2991 RMK A01 T03180141  RH  034%=      5-min Rain = 0
KTH1 162141Z 04006KT 32/14 A2991 RMK A01 T03180143  RH  035%=      5-min Rain = 0
KTH1 162142Z 06007KT 32/15 A2991 RMK A01 T03170146  RH  035%=      5-min Rain = 0
KTH1 162143Z 08005KT 32/15 A2991 RMK A01 T03180154  RH  037%=      5-min Rain = 0
KTH1 162144Z 09007KT 32/16 A2991 RMK A01 T03200160  RH  038%=      5-min Rain = 0
KTH1 162145Z 09007KT 32/15 A2991 RMK A01 T03230152  RH  036%=      5-min Rain = 0
KTH1 162146Z 06008KT 32/16 A2991 RMK A01 T03230157  RH  037%=      5-min Rain = 0
KTH1 162147Z 07009KT 32/16 A2991 RMK A01 T03220156  RH  037%=      5-min Rain = 0
KTH1 162148Z 08007KT 32/16 A2991 RMK A01 T03230160  RH  038%=      5-min Rain = 0
KTH1 162149Z 07011KT 32/16 A2991 RMK A01 T03230159  RH  037%=      5-min Rain = 0
KTH1 162150Z 08010KT 32/16 A2991 RMK A01 T03220158  RH  037%=      5-min Rain = 0
KTH1 162151Z 08009KT 32/16 A2991 RMK A01 T03200155  RH  037%=      5-min Rain = 0
KTH1 162152Z 09008KT 32/16 A2991 RMK A01 T03190155  RH  037%=      5-min Rain = 0
KTH1 162153Z 08008KT 32/16 A2991 RMK A01 T03170156  RH  038%=      5-min Rain = 0
KTH1 162154Z 08008KT 32/16 A2991 RMK A01 T03170160  RH  039%=      5-min Rain = 0
KTH1 162155Z 08009KT 32/16 A2991 RMK A01 T03180161  RH  039%=      5-min Rain = 0
KTH1 162156Z 08008KT 32/16 A2991 RMK A01 T03190161  RH  039%=      5-min Rain = 0
KTH1 162157Z 05007G12KT 32/17 A2991 RMK A01 T03190171  RH  041%=      5-min Rain = 0
KTH1 162158Z 03010KT 32/17 A2991 RMK A01 T03200168  RH  040%=      5-min Rain = 0
KTH1 162159Z 04009KT 32/17 A2991 RMK A01 T03170169  RH  041%=      5-min Rain = 0
KTH1 162200Z 05007KT 32/17 A2991 RMK A01 T03150174  RH  043%=      5-min Rain = 0
KTH1 162201Z 06008KT 32/18 A2991 RMK A01 T03150175  RH  043%=      5-min Rain = 0
KTH1 162202Z 07008KT 32/17 A2991 RMK A01 T03170174  RH  043%=      5-min Rain = 0
KTH1 162203Z 05011KT 32/17 A2991 RMK A01 T03180174  RH  042%=      5-min Rain = 0
KTH1 162204Z 05011KT 32/17 A2991 RMK A01 T03170174  RH  042%=      5-min Rain = 0
KTH1 162205Z 05009G14KT 32/17 A2991 RMK A01 T03150173  RH  043%=      5-min Rain = 0
KTH1 162206Z 05011G17KT 31/17 A2991 RMK A01 T03130174  RH  043%=      5-min Rain = 0
KTH1 162207Z 06007KT 31/18 A2991 RMK A01 T03120176  RH  044%=      5-min Rain = 0
KTH1 162208Z 04009G14KT 31/18 A2991 RMK A01 T03130179  RH  045%=      5-min Rain = 0
KTH1 162209Z 05011KT 31/18 A2991 RMK A01 T03130179  RH  045%=      5-min Rain = 0
KTH1 162210Z 06009G14KT 31/18 A2991 RMK A01 T03120179  RH  045%=      5-min Rain = 0
KTH1 162211Z 05007KT 31/18 A2991 RMK A01 T03100183  RH  047%=      5-min Rain = 0
KTH1 162212Z 05011G16KT 31/18 A2991 RMK A01 T03100182  RH  046%=      5-min Rain = 0
KTH1 162213Z 05011KT 31/18 A2991 RMK A01 T03110180  RH  046%=      5-min Rain = 0
KTH1 162214Z 04010G16KT 31/18 A2991 RMK A01 T03100178  RH  045%=      5-min Rain = 0
KTH1 162215Z 05013KT 31/18 A2991 RMK A01 T03070177  RH  046%=      5-min Rain = 0
KTH1 162216Z 06010KT 31/18 A2991 RMK A01 T03060179  RH  047%=      5-min Rain = 0
KTH1 162217Z 05008G13KT 31/18 A2991 RMK A01 T03060179  RH  047%=      5-min Rain = 0
KTH1 162218Z 04012KT 31/18 A2991 RMK A01 T03060179  RH  046%=      5-min Rain = 0
KTH1 162219Z 05010KT 31/18 A2991 RMK A01 T03050179  RH  047%=      5-min Rain = 0
KTH1 162220Z 04010KT 30/18 A2991 RMK A01 T03040180  RH  047%=      5-min Rain = 0
KTH1 162221Z 06009G14KT 30/18 A2991 RMK A01 T03040180  RH  048%=      5-min Rain = 0
KTH1 162222Z 05012G17KT 30/18 A2991 RMK A01 T03040179  RH  047%=      5-min Rain = 0
KTH1 162223Z 06011KT 30/18 A2991 RMK A01 T03040178  RH  047%=      5-min Rain = 0
KTH1 162224Z 05009G14KT 30/18 A2991 RMK A01 T03030179  RH  047%=      5-min Rain = 0
KTH1 162225Z 04008KT 30/18 A2991 RMK A01 T03030179  RH  047%=      5-min Rain = 0
KTH1 162226Z 04010KT 30/18 A2991 RMK A01 T03010177  RH  047%=      5-min Rain = 0
KTH1 162227Z 04013KT 30/18 A2991 RMK A01 T03000179  RH  048%=      5-min Rain = 0
KTH1 162228Z 05012KT 30/18 A2991 RMK A01 T03000177  RH  048%=      5-min Rain = 0
KTH1 162229Z 05011KT 30/18 A2991 RMK A01 T02990179  RH  048%=      5-min Rain = 0
KTH1 162230Z 05011KT 30/18 A2991 RMK A01 T02990179  RH  049%=      5-min Rain = 0
KTH1 162231Z 05010KT 30/18 A2991 RMK A01 T02990178  RH  048%=      5-min Rain = 0
KTH1 162232Z 05012G17KT 30/18 A2991 RMK A01 T03000177  RH  048%=      5-min Rain = 0
KTH1 162233Z 05011KT 30/18 A2991 RMK A01 T02990178  RH  048%=      5-min Rain = 0
KTH1 162234Z 05009KT 30/18 A2991 RMK A01 T02990179  RH  049%=      5-min Rain = 0
KTH1 162235Z 05010KT 30/18 A2991 RMK A01 T03000178  RH  048%=      5-min Rain = 0
KTH1 162236Z 06009G15KT 30/18 A2991 RMK A01 T03000181  RH  049%=      5-min Rain = 0
KTH1 162237Z 05009G14KT 30/18 A2991 RMK A01 T03010178  RH  048%=      5-min Rain = 0
KTH1 162238Z 06007KT 30/18 A2991 RMK A01 T03010182  RH  049%=      5-min Rain = 0
KTH1 162239Z 06011G17KT 30/18 A2991 RMK A01 T03010181  RH  049%=      5-min Rain = 0
KTH1 162240Z 06011KT 30/18 A2992 RMK A01 T03010179  RH  048%=      5-min Rain = 0
KTH1 162241Z 07009KT 30/18 A2992 RMK A01 T03010177  RH  047%=      5-min Rain = 0
KTH1 162242Z 06012KT 30/18 A2992 RMK A01 T03010178  RH  048%=      5-min Rain = 0
KTH1 162243Z 06011KT 30/18 A2992 RMK A01 T03000176  RH  047%=      5-min Rain = 0
KTH1 162244Z 05011G16KT 30/18 A2992 RMK A01 T02990176  RH  048%=      5-min Rain = 0
KTH1 162245Z 06010KT 30/18 A2992 RMK A01 T02980178  RH  048%=      5-min Rain = 0
KTH1 162246Z 07010KT 30/18 A2992 RMK A01 T02980177  RH  048%=      5-min Rain = 0
KTH1 162247Z 07010G16KT 30/18 A2992 RMK A01 T02970175  RH  048%=      5-min Rain = 0
KTH1 162248Z 07009KT 29/17 A2992 RMK A01 T02940174  RH  048%=      5-min Rain = 0
KTH1 162249Z 07011G16KT 29/18 A2992 RMK A01 T02920175  RH  049%=      5-min Rain = 0
KTH1 162250Z 06009G14KT 29/17 A2992 RMK A01 T02900172  RH  049%=      5-min Rain = 0
KTH1 162251Z 06008KT 29/18 A2992 RMK A01 T02890175  RH  050%=      5-min Rain = 0
KTH1 162252Z 06010KT 29/17 A2992 RMK A01 T02870172  RH  050%=      5-min Rain = 0
KTH1 162253Z 06007KT 29/17 A2992 RMK A01 T02870173  RH  050%=      5-min Rain = 0
KTH1 162254Z 07008G13KT 29/17 A2992 RMK A01 T02870174  RH  050%=      5-min Rain = 0
KTH1 162255Z 07010KT 29/17 A2992 RMK A01 T02870173  RH  050%=      5-min Rain = 0
KTH1 162256Z 08008KT 29/17 A2992 RMK A01 T02860172  RH  050%=      5-min Rain = 0
KTH1 162257Z 07009G14KT 29/17 A2992 RMK A01 T02860172  RH  050%=      5-min Rain = 0
KTH1 162258Z 06007G12KT 29/17 A2992 RMK A01 T02860172  RH  050%=      5-min Rain = 0
KTH1 162259Z 05006KT 29/17 A2992 RMK A01 T02850174  RH  051%=      5-min Rain = 0
KTH1 162300Z 04007KT 29/18 A2992 RMK A01 T02860176  RH  052%=      5-min Rain = 0
KTH1 162301Z 06006KT 29/17 A2992 RMK A01 T02860174  RH  051%=      5-min Rain = 0
KTH1 162302Z 07009KT 29/17 A2992 RMK A01 T02860172  RH  050%=      5-min Rain = 0
KTH1 162303Z 06009KT 29/17 A2992 RMK A01 T02870172  RH  050%=      5-min Rain = 0
KTH1 162304Z 07007KT 29/17 A2992 RMK A01 T02870172  RH  050%=      5-min Rain = 0
KTH1 162305Z 06007KT 29/18 A2992 RMK A01 T02870176  RH  051%=      5-min Rain = 0
KTH1 162306Z 05010KT 29/18 A2992 RMK A01 T02870175  RH  051%=      5-min Rain = 0
KTH1 162307Z 05009KT 29/17 A2992 RMK A01 T02870173  RH  050%=      5-min Rain = 0
KTH1 162308Z 06007KT 29/18 A2992 RMK A01 T02870175  RH  051%=      5-min Rain = 0
KTH1 162309Z 05005KT 29/18 A2992 RMK A01 T02880176  RH  051%=      5-min Rain = 0
KTH1 162310Z 05007G12KT 29/18 A2992 RMK A01 T02900178  RH  051%=      5-min Rain = 0
KTH1 162311Z 06011KT 29/18 A2992 RMK A01 T02910176  RH  050%=      5-min Rain = 0
KTH1 162312Z 06010KT 29/18 A2992 RMK A01 T02910175  RH  049%=      5-min Rain = 0
KTH1 162313Z 06006KT 29/18 A2992 RMK A01 T02920177  RH  050%=      5-min Rain = 0
KTH1 162314Z 07008KT 29/18 A2992 RMK A01 T02920178  RH  050%=      5-min Rain = 0
KTH1 162315Z 07010KT 29/18 A2992 RMK A01 T02930178  RH  050%=      5-min Rain = 0
KTH1 162316Z 08011KT 29/18 A2992 RMK A01 T02930177  RH  049%=      5-min Rain = 0
KTH1 162317Z 08008KT 29/18 A2992 RMK A01 T02930177  RH  050%=      5-min Rain = 0
KTH1 162318Z 06008G13KT 29/18 A2992 RMK A01 T02930179  RH  050%=      5-min Rain = 0
KTH1 162319Z 05011KT 29/18 A2992 RMK A01 T02940178  RH  050%=      5-min Rain = 0
KTH1 162320Z 06012KT 30/18 A2992 RMK A01 T02950175  RH  048%=      5-min Rain = 0
KTH1 162321Z 06008KT 30/18 A2992 RMK A01 T02950177  RH  049%=      5-min Rain = 0
KTH1 162322Z 06010KT 30/17 A2992 RMK A01 T02960173  RH  048%=      5-min Rain = 0
KTH1 162323Z 05009KT 30/17 A2992 RMK A01 T02950173  RH  048%=      5-min Rain = 0
KTH1 162324Z 06009KT 30/17 A2992 RMK A01 T02950173  RH  048%=      5-min Rain = 0
KTH1 162325Z 06007KT 30/18 A2992 RMK A01 T02950175  RH  048%=      5-min Rain = 0
KTH1 162326Z 06009KT 30/17 A2992 RMK A01 T02960172  RH  047%=      5-min Rain = 0
KTH1 162327Z 06009KT 30/17 A2992 RMK A01 T02960170  RH  047%=      5-min Rain = 0
KTH1 162328Z 07008KT 30/17 A2992 RMK A01 T02960172  RH  047%=      5-min Rain = 0
KTH1 162329Z 06010KT 30/17 A2992 RMK A01 T02970171  RH  047%=      5-min Rain = 0
KTH1 162330Z 07010KT 30/17 A2992 RMK A01 T02980169  RH  046%=      5-min Rain = 0
KTH1 162331Z 07008KT 30/17 A2992 RMK A01 T02980166  RH  045%=      5-min Rain = 0
KTH1 162332Z 05008KT 30/17 A2992 RMK A01 T02970166  RH  045%=      5-min Rain = 0
KTH1 162333Z 05009KT 30/17 A2992 RMK A01 T02960167  RH  046%=      5-min Rain = 0
KTH1 162334Z 04010KT 30/17 A2992 RMK A01 T02960166  RH  046%=      5-min Rain = 0
KTH1 162335Z 06010G15KT 29/17 A2992 RMK A01 T02940165  RH  046%=      5-min Rain = 0
KTH1 162336Z 05007KT 29/17 A2992 RMK A01 T02930167  RH  046%=      5-min Rain = 0
KTH1 162337Z 06010KT 29/17 A2992 RMK A01 T02930166  RH  046%=      5-min Rain = 0
KTH1 162338Z 06008KT 29/17 A2992 RMK A01 T02930165  RH  046%=      5-min Rain = 0
KTH1 162339Z 07008KT 29/17 A2992 RMK A01 T02930169  RH  047%=      5-min Rain = 0
KTH1 162340Z 05010KT 29/17 A2992 RMK A01 T02920165  RH  046%=      5-min Rain = 0
KTH1 162341Z 06008KT 29/17 A2992 RMK A01 T02920165  RH  046%=      5-min Rain = 0
KTH1 162342Z 05006KT 29/17 A2992 RMK A01 T02910165  RH  046%=      5-min Rain = 0
KTH1 162343Z 07008G14KT 29/17 A2992 RMK A01 T02900166  RH  047%=      5-min Rain = 0
KTH1 162344Z 07009KT 29/16 A2992 RMK A01 T02900162  RH  046%=      5-min Rain = 0
KTH1 162345Z 06010KT 29/16 A2992 RMK A01 T02900162  RH  046%=      5-min Rain = 0
KTH1 162346Z 05009KT 29/16 A2992 RMK A01 T02890164  RH  047%=      5-min Rain = 0
KTH1 162347Z 07006KT 29/17 A2992 RMK A01 T02880167  RH  048%=      5-min Rain = 0
KTH1 162348Z 06009KT 29/17 A2992 RMK A01 T02880165  RH  047%=      5-min Rain = 0
KTH1 162349Z 07009KT 29/16 A2992 RMK A01 T02880160  RH  046%=      5-min Rain = 0
KTH1 162350Z 07009KT 29/16 A2992 RMK A01 T02880162  RH  046%=      5-min Rain = 0
KTH1 162351Z 06009KT 29/16 A2992 RMK A01 T02870161  RH  046%=      5-min Rain = 0
KTH1 162352Z 07009KT 29/16 A2992 RMK A01 T02870158  RH  045%=      5-min Rain = 0
KTH1 162353Z 07008KT 29/16 A2992 RMK A01 T02860156  RH  045%=      5-min Rain = 0
KTH1 162354Z 07008KT 29/15 A2992 RMK A01 T02860154  RH  045%=      5-min Rain = 0
KTH1 162355Z 07007KT 29/16 A2992 RMK A01 T02860156  RH  045%=      5-min Rain = 0
KTH1 162356Z 06008KT 29/16 A2992 RMK A01 T02860156  RH  045%=      5-min Rain = 0
KTH1 162357Z 07007KT 29/16 A2992 RMK A01 T02860155  RH  045%=      5-min Rain = 0
KTH1 162358Z 06007KT 29/15 A2992 RMK A01 T02860154  RH  045%=      5-min Rain = 0
KTH1 162359Z 06007KT 29/16 A2992 RMK A01 T02860156  RH  045%=      5-min Rain = 0
KTH1 170000Z 06006KT 29/16 A2992 RMK A01 T02860157  RH  046%=      5-min Rain = 0
KTH1 170001Z 06008KT 29/15 A2991 RMK A01 T02860154  RH  045%=      5-min Rain = 0
KTH1 170002Z 06006KT 29/15 A2991 RMK A01 T02860149  RH  043%=      5-min Rain = 0
KTH1 170003Z 05007KT 29/15 A2991 RMK A01 T02850149  RH  043%=      5-min Rain = 0
KTH1 170004Z 05008KT 29/15 A2991 RMK A01 T02850147  RH  043%=      5-min Rain = 0
KTH1 170005Z 05007KT 28/15 A2991 RMK A01 T02840146  RH  043%=      5-min Rain = 0
KTH1 170006Z 05008KT 28/15 A2991 RMK A01 T02840146  RH  043%=      5-min Rain = 0
KTH1 170007Z 06007KT 28/15 A2991 RMK A01 T02840148  RH  043%=      5-min Rain = 0
KTH1 170008Z 06007KT 28/15 A2991 RMK A01 T02830148  RH  044%=      5-min Rain = 0
KTH1 170009Z 05008KT 28/15 A2991 RMK A01 T02830147  RH  043%=      5-min Rain = 0
KTH1 170010Z 05008KT 28/15 A2991 RMK A01 T02830145  RH  043%=      5-min Rain = 0
KTH1 170011Z 05007KT 28/14 A2991 RMK A01 T02830144  RH  043%=      5-min Rain = 0
KTH1 170012Z 05006KT 28/15 A2991 RMK A01 T02820146  RH  043%=      5-min Rain = 0
KTH1 170013Z 06005KT 28/15 A2991 RMK A01 T02820147  RH  044%=      5-min Rain = 0
KTH1 170014Z 07007KT 28/15 A2991 RMK A01 T02820147  RH  044%=      5-min Rain = 0
KTH1 170015Z 05006G12KT 28/15 A2991 RMK A01 T02820149  RH  044%=      5-min Rain = 0
KTH1 170016Z 05007KT 28/15 A2991 RMK A01 T02820147  RH  044%=      5-min Rain = 0
KTH1 170017Z 06007KT 28/15 A2991 RMK A01 T02820147  RH  044%=      5-min Rain = 0
KTH1 170018Z 06008KT 28/15 A2991 RMK A01 T02820147  RH  044%=      5-min Rain = 0
KTH1 170019Z 07007KT 28/15 A2991 RMK A01 T02820146  RH  044%=      5-min Rain = 0
KTH1 170020Z 06007KT 28/15 A2991 RMK A01 T02810147  RH  044%=      5-min Rain = 0
KTH1 170021Z 07006KT 28/15 A2991 RMK A01 T02810149  RH  045%=      5-min Rain = 0
KTH1 170022Z 07006KT 28/15 A2991 RMK A01 T02810149  RH  045%=      5-min Rain = 0
KTH1 170023Z 07006KT 28/15 A2991 RMK A01 T02800151  RH  045%=      5-min Rain = 0
KTH1 170024Z 07009KT 28/15 A2991 RMK A01 T02800151  RH  045%=      5-min Rain = 0
KTH1 170025Z 07007KT 28/15 A2991 RMK A01 T02800152  RH  046%=      5-min Rain = 0
KTH1 170026Z 07008KT 28/15 A2991 RMK A01 T02790153  RH  046%=      5-min Rain = 0
KTH1 170027Z 06006KT 28/15 A2991 RMK A01 T02780153  RH  046%=      5-min Rain = 0
KTH1 170028Z 06008KT 28/15 A2991 RMK A01 T02770154  RH  047%=      5-min Rain = 0
KTH1 170029Z 06006KT 28/15 A2991 RMK A01 T02770154  RH  047%=      5-min Rain = 0
KTH1 170030Z 06008KT 28/15 A2991 RMK A01 T02770154  RH  047%=      5-min Rain = 0
KTH1 170031Z 07008KT 28/16 A2991 RMK A01 T02760156  RH  048%=      5-min Rain = 0
KTH1 170032Z 07008KT 28/16 A2991 RMK A01 T02750156  RH  048%=      5-min Rain = 0
KTH1 170033Z 07009KT 28/16 A2991 RMK A01 T02750157  RH  048%=      5-min Rain = 0
KTH1 170034Z 06006KT 28/16 A2991 RMK A01 T02750158  RH  049%=      5-min Rain = 0
KTH1 170035Z 06007KT 27/16 A2991 RMK A01 T02740160  RH  050%=      5-min Rain = 0
KTH1 170036Z 06006KT 27/16 A2991 RMK A01 T02740160  RH  050%=      5-min Rain = 0
KTH1 170037Z 06006G11KT 27/16 A2991 RMK A01 T02730160  RH  050%=      5-min Rain = 0
KTH1 170038Z 06007KT 27/16 A2991 RMK A01 T02730161  RH  050%=      5-min Rain = 0
KTH1 170039Z 07007KT 27/16 A2991 RMK A01 T02720159  RH  050%=      5-min Rain = 0
KTH1 170040Z 06008KT 27/16 A2991 RMK A01 T02720157  RH  049%=      5-min Rain = 0
KTH1 170041Z 07007KT 27/16 A2991 RMK A01 T02710156  RH  049%=      5-min Rain = 0
KTH1 170042Z 06007KT 27/16 A2991 RMK A01 T02710156  RH  050%=      5-min Rain = 0
KTH1 170043Z 07006KT 27/16 A2991 RMK A01 T02700157  RH  050%=      5-min Rain = 0
KTH1 170044Z 07006KT 27/16 A2991 RMK A01 T02690157  RH  050%=      5-min Rain = 0
KTH1 170045Z 07007KT 27/16 A2991 RMK A01 T02690157  RH  050%=      5-min Rain = 0
KTH1 170046Z 07007KT 27/16 A2991 RMK A01 T02690156  RH  050%=      5-min Rain = 0
KTH1 170047Z 08005KT 27/16 A2991 RMK A01 T02680156  RH  050%=      5-min Rain = 0
KTH1 170048Z 08005KT 27/16 A2991 RMK A01 T02680156  RH  050%=      5-min Rain = 0
KTH1 170049Z 07007KT 27/16 A2991 RMK A01 T02680156  RH  050%=      5-min Rain = 0
KTH1 170050Z 07007KT 27/16 A2991 RMK A01 T02680155  RH  050%=      5-min Rain = 0
KTH1 170051Z 07007KT 27/15 A2991 RMK A01 T02670154  RH  050%=      5-min Rain = 0
KTH1 170052Z 07007KT 27/15 A2991 RMK A01 T02670154  RH  050%=      5-min Rain = 0
KTH1 170053Z 07007KT 27/15 A2991 RMK A01 T02660153  RH  050%=      5-min Rain = 0
KTH1 170054Z 06006KT 27/15 A2991 RMK A01 T02660152  RH  050%=      5-min Rain = 0
KTH1 170055Z 07005KT 27/15 A2991 RMK A01 T02660151  RH  049%=      5-min Rain = 0
KTH1 170056Z 06007KT 27/15 A2991 RMK A01 T02650151  RH  049%=      5-min Rain = 0
KTH1 170057Z 06006KT 27/15 A2991 RMK A01 T02650150  RH  049%=      5-min Rain = 0
KTH1 170058Z 06006KT 26/15 A2991 RMK A01 T02640150  RH  049%=      5-min Rain = 0
KTH1 170059Z 06005KT 26/15 A2991 RMK A01 T02640150  RH  050%=      5-min Rain = 0
KTH1 170100Z 07005KT 26/15 A2991 RMK A01 T02630150  RH  050%=      5-min Rain = 0
KTH1 170101Z 08005KT 26/15 A2992 RMK A01 T02630150  RH  050%=      5-min Rain = 0
KTH1 170102Z 08005KT 26/15 A2992 RMK A01 T02620151  RH  050%=      5-min Rain = 0
KTH1 170103Z 08004KT 26/15 A2992 RMK A01 T02620151  RH  051%=      5-min Rain = 0
KTH1 170104Z 07004KT 26/15 A2992 RMK A01 T02610151  RH  051%=      5-min Rain = 0
KTH1 170105Z 07005KT 26/15 A2992 RMK A01 T02600152  RH  051%=      5-min Rain = 0
KTH1 170106Z 08004KT 26/15 A2992 RMK A01 T02590152  RH  051%=      5-min Rain = 0
KTH1 170107Z 08004KT 26/15 A2992 RMK A01 T02590151  RH  051%=      5-min Rain = 0
KTH1 170108Z 08004KT 26/15 A2992 RMK A01 T02580151  RH  052%=      5-min Rain = 0
KTH1 170109Z 08004KT 26/15 A2992 RMK A01 T02580152  RH  052%=      5-min Rain = 0
KTH1 170110Z 08004KT 26/15 A2992 RMK A01 T02570152  RH  052%=      5-min Rain = 0
KTH1 170111Z 07004KT 26/15 A2992 RMK A01 T02560152  RH  053%=      5-min Rain = 0
KTH1 170112Z 08004KT 26/15 A2992 RMK A01 T02550152  RH  053%=      5-min Rain = 0
KTH1 170113Z 07004KT 26/15 A2992 RMK A01 T02550152  RH  053%=      5-min Rain = 0
KTH1 170114Z 07004KT 25/15 A2992 RMK A01 T02530152  RH  053%=      5-min Rain = 0
KTH1 170115Z 07003KT 25/15 A2992 RMK A01 T02520153  RH  054%=      5-min Rain = 0
KTH1 170116Z 08004KT 25/15 A2992 RMK A01 T02510153  RH  054%=      5-min Rain = 0
KTH1 170117Z 08004KT 25/15 A2992 RMK A01 T02510152  RH  054%=      5-min Rain = 0
KTH1 170118Z 08004KT 25/15 A2992 RMK A01 T02500152  RH  055%=      5-min Rain = 0
KTH1 170119Z 07004KT 25/15 A2992 RMK A01 T02490152  RH  055%=      5-min Rain = 0
KTH1 170120Z 08004KT 25/15 A2992 RMK A01 T02480152  RH  055%=      5-min Rain = 0
KTH1 170121Z 08004KT 25/15 A2992 RMK A01 T02480151  RH  055%=      5-min Rain = 0
KTH1 170122Z 07005KT 25/15 A2992 RMK A01 T02470152  RH  055%=      5-min Rain = 0
KTH1 170123Z 08005KT 25/15 A2992 RMK A01 T02460152  RH  056%=      5-min Rain = 0
KTH1 170124Z 08004KT 25/15 A2992 RMK A01 T02450152  RH  056%=      5-min Rain = 0
KTH1 170125Z 08005KT 25/15 A2992 RMK A01 T02450151  RH  056%=      5-min Rain = 0
KTH1 170126Z 08005KT 24/15 A2992 RMK A01 T02440151  RH  056%=      5-min Rain = 0
KTH1 170127Z 08005KT 24/15 A2992 RMK A01 T02440151  RH  056%=      5-min Rain = 0
KTH1 170128Z 07004KT 24/15 A2992 RMK A01 T02430152  RH  057%=      5-min Rain = 0
KTH1 170129Z 07005KT 24/15 A2992 RMK A01 T02420151  RH  057%=      5-min Rain = 0
KTH1 170130Z 07004KT 24/15 A2992 RMK A01 T02420151  RH  057%=      5-min Rain = 0
KTH1 170131Z 08004KT 24/15 A2992 RMK A01 T02410151  RH  057%=      5-min Rain = 0
KTH1 170132Z 08004KT 24/15 A2992 RMK A01 T02410151  RH  057%=      5-min Rain = 0
KTH1 170133Z 08004KT 24/15 A2992 RMK A01 T02400151  RH  058%=      5-min Rain = 0
KTH1 170134Z 08004KT 24/15 A2993 RMK A01 T02400152  RH  058%=      5-min Rain = 0
KTH1 170135Z 09004KT 24/15 A2993 RMK A01 T02390152  RH  058%=      5-min Rain = 0
KTH1 170136Z 09003KT 24/15 A2993 RMK A01 T02380152  RH  058%=      5-min Rain = 0
KTH1 170137Z 09003KT 24/15 A2993 RMK A01 T02380151  RH  058%=      5-min Rain = 0
KTH1 170138Z 09003KT 24/15 A2993 RMK A01 T02370151  RH  059%=      5-min Rain = 0
KTH1 170139Z 09004KT 24/15 A2993 RMK A01 T02360151  RH  059%=      5-min Rain = 0
KTH1 170140Z 08004KT 24/15 A2993 RMK A01 T02360151  RH  059%=      5-min Rain = 0
KTH1 170141Z 08004KT 24/15 A2993 RMK A01 T02350151  RH  059%=      5-min Rain = 0
KTH1 170142Z 09005KT 24/15 A2993 RMK A01 T02350151  RH  059%=      5-min Rain = 0
KTH1 170143Z 09004KT 24/15 A2993 RMK A01 T02350151  RH  059%=      5-min Rain = 0
KTH1 170144Z 08005KT 24/15 A2993 RMK A01 T02350151  RH  059%=      5-min Rain = 0
KTH1 170145Z 08004KT 24/15 A2993 RMK A01 T02350151  RH  059%=      5-min Rain = 0
KTH1 170146Z 09004KT 24/15 A2993 RMK A01 T02350151  RH  059%=      5-min Rain = 0
KTH1 170147Z 09004KT 24/15 A2993 RMK A01 T02350151  RH  059%=      5-min Rain = 0
KTH1 170148Z 09004KT 24/15 A2993 RMK A01 T02350151  RH  059%=      5-min Rain = 0
KTH1 170149Z 09004KT 24/15 A2993 RMK A01 T02350152  RH  060%=      5-min Rain = 0
KTH1 170150Z 09004KT 23/15 A2993 RMK A01 T02340151  RH  060%=      5-min Rain = 0
KTH1 170151Z 08003KT 23/15 A2993 RMK A01 T02340151  RH  060%=      5-min Rain = 0
KTH1 170152Z 08003KT 23/15 A2993 RMK A01 T02340152  RH  060%=      5-min Rain = 0
KTH1 170153Z 08003KT 23/15 A2993 RMK A01 T02330152  RH  060%=      5-min Rain = 0
KTH1 170154Z 08004KT 23/15 A2993 RMK A01 T02320152  RH  060%=      5-min Rain = 0
KTH1 170155Z 08004KT 23/15 A2993 RMK A01 T02320152  RH  061%=      5-min Rain = 0
KTH1 170156Z 08004KT 23/15 A2993 RMK A01 T02310151  RH  061%=      5-min Rain = 0
KTH1 170157Z 08003KT 23/15 A2993 RMK A01 T02310152  RH  061%=      5-min Rain = 0
KTH1 170158Z 07004KT 23/15 A2993 RMK A01 T02310152  RH  061%=      5-min Rain = 0
KTH1 170159Z 07004KT 23/15 A2993 RMK A01 T02300151  RH  061%=      5-min Rain = 0
KTH1 170200Z 07004KT 23/15 A2993 RMK A01 T02300151  RH  061%=      5-min Rain = 0
KTH1 170201Z 07004KT 23/15 A2993 RMK A01 T02290151  RH  061%=      5-min Rain = 0
KTH1 170202Z 07003KT 23/15 A2993 RMK A01 T02290151  RH  062%=      5-min Rain = 0
KTH1 170203Z 07003KT 23/15 A2993 RMK A01 T02280151  RH  062%=      5-min Rain = 0
KTH1 170204Z 07003KT 23/15 A2993 RMK A01 T02280151  RH  062%=      5-min Rain = 0
KTH1 170205Z 07003KT 23/15 A2993 RMK A01 T02280152  RH  062%=      5-min Rain = 0
KTH1 170206Z 06003KT 23/15 A2993 RMK A01 T02280152  RH  062%=      5-min Rain = 0
KTH1 170207Z 06003KT 23/15 A2993 RMK A01 T02280152  RH  062%=      5-min Rain = 0
KTH1 170208Z 06003KT 23/15 A2993 RMK A01 T02270151  RH  062%=      5-min Rain = 0
KTH1 170209Z 06004KT 23/15 A2993 RMK A01 T02270151  RH  062%=      5-min Rain = 0
KTH1 170210Z 06003KT 23/15 A2993 RMK A01 T02260152  RH  063%=      5-min Rain = 0
KTH1 170211Z 06004KT 23/15 A2993 RMK A01 T02260152  RH  063%=      5-min Rain = 0
KTH1 170212Z 06004KT 23/15 A2993 RMK A01 T02260152  RH  063%=      5-min Rain = 0
KTH1 170213Z 07004KT 23/15 A2993 RMK A01 T02260152  RH  063%=      5-min Rain = 0
KTH1 170214Z 06004KT 23/15 A2993 RMK A01 T02260152  RH  063%=      5-min Rain = 0
KTH1 170215Z 06004KT 23/15 A2993 RMK A01 T02260153  RH  063%=      5-min Rain = 0
KTH1 170216Z 06004KT 23/15 A2993 RMK A01 T02260152  RH  063%=      5-min Rain = 0
KTH1 170217Z 06004KT 23/15 A2993 RMK A01 T02260153  RH  063%=      5-min Rain = 0
KTH1 170218Z 07004KT 23/15 A2994 RMK A01 T02260153  RH  063%=      5-min Rain = 0
KTH1 170219Z 07004KT 23/15 A2994 RMK A01 T02250153  RH  064%=      5-min Rain = 0
KTH1 170220Z 07004KT 23/15 A2994 RMK A01 T02250153  RH  064%=      5-min Rain = 0
KTH1 170221Z 07004KT 23/15 A2994 RMK A01 T02250154  RH  064%=      5-min Rain = 0
KTH1 170222Z 07003KT 23/15 A2994 RMK A01 T02250153  RH  064%=      5-min Rain = 0
KTH1 170223Z 07004KT 23/15 A2994 RMK A01 T02250154  RH  064%=      5-min Rain = 0
KTH1 170224Z 07004KT 22/15 A2993 RMK A01 T02240153  RH  064%=      5-min Rain = 0
KTH1 170225Z 07004KT 22/15 A2993 RMK A01 T02240153  RH  064%=      5-min Rain = 0
KTH1 170226Z 07004KT 22/15 A2993 RMK A01 T02230153  RH  064%=      5-min Rain = 0
KTH1 170227Z 07004KT 22/15 A2993 RMK A01 T02220153  RH  065%=      5-min Rain = 0
KTH1 170228Z 07004KT 22/15 A2993 RMK A01 T02220153  RH  065%=      5-min Rain = 0
KTH1 170229Z 07004KT 22/15 A2993 RMK A01 T02210153  RH  065%=      5-min Rain = 0
KTH1 170230Z 07004KT 22/15 A2993 RMK A01 T02210153  RH  065%=      5-min Rain = 0
KTH1 170231Z 07004KT 22/15 A2993 RMK A01 T02210154  RH  066%=      5-min Rain = 0
KTH1 170232Z 07004KT 22/15 A2993 RMK A01 T02200153  RH  066%=      5-min Rain = 0
KTH1 170233Z 07004KT 22/15 A2993 RMK A01 T02190153  RH  066%=      5-min Rain = 0
KTH1 170234Z 07004KT 22/15 A2993 RMK A01 T02190153  RH  066%=      5-min Rain = 0
KTH1 170235Z 06003KT 22/15 A2993 RMK A01 T02180153  RH  066%=      5-min Rain = 0
KTH1 170236Z 07003KT 22/15 A2993 RMK A01 T02180153  RH  067%=      5-min Rain = 0
KTH1 170237Z 07003KT 22/15 A2993 RMK A01 T02170153  RH  067%=      5-min Rain = 0
KTH1 170238Z 07003KT 22/15 A2993 RMK A01 T02170153  RH  067%=      5-min Rain = 0
KTH1 170239Z 07003KT 22/15 A2993 RMK A01 T02160153  RH  067%=      5-min Rain = 0
KTH1 170240Z 07003KT 22/15 A2993 RMK A01 T02150153  RH  068%=      5-min Rain = 0
KTH1 170241Z 07004KT 22/15 A2993 RMK A01 T02150153  RH  068%=      5-min Rain = 0
KTH1 170242Z 07004KT 21/15 A2993 RMK A01 T02140153  RH  068%=      5-min Rain = 0
KTH1 170243Z 07004KT 22/15 A2993 RMK A01 T02150153  RH  068%=      5-min Rain = 0
KTH1 170244Z 07004KT 22/15 A2993 RMK A01 T02150153  RH  068%=      5-min Rain = 0
KTH1 170245Z 07004KT 21/15 A2994 RMK A01 T02140153  RH  068%=      5-min Rain = 0
KTH1 170246Z 08003KT 21/15 A2994 RMK A01 T02140153  RH  068%=      5-min Rain = 0
KTH1 170247Z 08003KT 21/15 A2994 RMK A01 T02140153  RH  068%=      5-min Rain = 0
KTH1 170248Z 08003KT 21/15 A2994 RMK A01 T02140153  RH  068%=      5-min Rain = 0
KTH1 170249Z 07004KT 21/15 A2994 RMK A01 T02140152  RH  068%=      5-min Rain = 0
KTH1 170250Z 07004KT 21/15 A2994 RMK A01 T02140153  RH  068%=      5-min Rain = 0
KTH1 170251Z 07004KT 21/15 A2994 RMK A01 T02140153  RH  068%=      5-min Rain = 0
KTH1 170252Z 07004KT 21/15 A2994 RMK A01 T02140152  RH  068%=      5-min Rain = 0
KTH1 170253Z 07004KT 21/15 A2993 RMK A01 T02140153  RH  068%=      5-min Rain = 0
KTH1 170254Z 07004KT 21/15 A2993 RMK A01 T02140153  RH  068%=      5-min Rain = 0
KTH1 170255Z 07003KT 21/15 A2993 RMK A01 T02140153  RH  068%=      5-min Rain = 0
KTH1 170256Z 07004KT 21/15 A2993 RMK A01 T02130153  RH  068%=      5-min Rain = 0
KTH1 170257Z 08004KT 21/15 A2993 RMK A01 T02130153  RH  069%=      5-min Rain = 0
KTH1 170258Z 08004KT 21/15 A2993 RMK A01 T02120153  RH  069%=      5-min Rain = 0
KTH1 170259Z 08004KT 21/15 A2993 RMK A01 T02120153  RH  069%=      5-min Rain = 0
KTH1 170300Z 08003KT 21/15 A2993 RMK A01 T02110153  RH  069%=      5-min Rain = 0
KTH1 170301Z 08004KT 21/15 A2993 RMK A01 T02110152  RH  069%=      5-min Rain = 0
KTH1 170302Z 08004KT 21/15 A2993 RMK A01 T02110153  RH  069%=      5-min Rain = 0
KTH1 170303Z 09004KT 21/15 A2993 RMK A01 T02110153  RH  069%=      5-min Rain = 0
KTH1 170304Z 09004KT 21/15 A2993 RMK A01 T02110152  RH  069%=      5-min Rain = 0
KTH1 170305Z 09004KT 21/15 A2993 RMK A01 T02110153  RH  069%=      5-min Rain = 0
KTH1 170306Z 09004KT 21/15 A2993 RMK A01 T02110153  RH  070%=      5-min Rain = 0
KTH1 170307Z 09004KT 21/15 A2994 RMK A01 T02110153  RH  070%=      5-min Rain = 0
KTH1 170308Z 10004KT 21/15 A2994 RMK A01 T02110154  RH  070%=      5-min Rain = 0
KTH1 170309Z 10003KT 21/15 A2994 RMK A01 T02110154  RH  070%=      5-min Rain = 0
KTH1 170310Z 09003KT 21/15 A2994 RMK A01 T02110154  RH  070%=      5-min Rain = 0
KTH1 170311Z 10004KT 21/15 A2994 RMK A01 T02110154  RH  070%=      5-min Rain = 0
KTH1 170312Z 09004KT 21/15 A2994 RMK A01 T02110154  RH  070%=      5-min Rain = 0
KTH1 170313Z 09003KT 21/15 A2994 RMK A01 T02110154  RH  070%=      5-min Rain = 0
KTH1 170314Z 09003KT 21/15 A2994 RMK A01 T02120154  RH  070%=      5-min Rain = 0
KTH1 170315Z 08003KT 21/16 A2994 RMK A01 T02110155  RH  070%=      5-min Rain = 0
KTH1 170316Z 07004KT 21/16 A2994 RMK A01 T02110155  RH  070%=      5-min Rain = 0
KTH1 170317Z 08003KT 21/15 A2994 RMK A01 T02110154  RH  070%=      5-min Rain = 0
KTH1 170318Z 08003KT 21/15 A2994 RMK A01 T02110154  RH  070%=      5-min Rain = 0
KTH1 170319Z 08004KT 21/15 A2994 RMK A01 T02110154  RH  070%=      5-min Rain = 0
KTH1 170320Z 08004KT 21/15 A2994 RMK A01 T02110154  RH  070%=      5-min Rain = 0
KTH1 170321Z 08004KT 21/16 A2994 RMK A01 T02110155  RH  070%=      5-min Rain = 0
KTH1 170322Z 08004KT 21/15 A2994 RMK A01 T02100154  RH  070%=      5-min Rain = 0
KTH1 170323Z 08004KT 21/15 A2994 RMK A01 T02100154  RH  070%=      5-min Rain = 0
KTH1 170324Z 08004KT 21/15 A2994 RMK A01 T02100154  RH  070%=      5-min Rain = 0
KTH1 170325Z 08003KT 21/15 A2994 RMK A01 T02100154  RH  070%=      5-min Rain = 0
KTH1 170326Z 08003KT 21/15 A2994 RMK A01 T02100154  RH  070%=      5-min Rain = 0
KTH1 170327Z 07004KT 21/16 A2994 RMK A01 T02100155  RH  070%=      5-min Rain = 0
KTH1 170328Z 08004KT 21/15 A2994 RMK A01 T02100154  RH  070%=      5-min Rain = 0
KTH1 170329Z 07004KT 21/15 A2994 RMK A01 T02100154  RH  071%=      5-min Rain = 0
KTH1 170330Z 07004KT 21/16 A2994 RMK A01 T02090155  RH  071%=      5-min Rain = 0
KTH1 170331Z 08003KT 21/16 A2994 RMK A01 T02100155  RH  071%=      5-min Rain = 0
KTH1 170332Z 08004KT 21/16 A2994 RMK A01 T02090155  RH  071%=      5-min Rain = 0
KTH1 170333Z 08003KT 21/16 A2994 RMK A01 T02090155  RH  071%=      5-min Rain = 0
KTH1 170334Z 08004KT 21/16 A2994 RMK A01 T02090155  RH  071%=      5-min Rain = 0
KTH1 170335Z 08003KT 21/16 A2994 RMK A01 T02090155  RH  071%=      5-min Rain = 0
KTH1 170336Z 09003KT 21/16 A2994 RMK A01 T02080155  RH  071%=      5-min Rain = 0
KTH1 170337Z 08003KT 21/15 A2994 RMK A01 T02080154  RH  072%=      5-min Rain = 0
KTH1 170338Z 09003KT 21/16 A2994 RMK A01 T02070155  RH  072%=      5-min Rain = 0
KTH1 170339Z 09004KT 21/16 A2994 RMK A01 T02070155  RH  072%=      5-min Rain = 0
KTH1 170340Z 09004KT 21/16 A2994 RMK A01 T02070155  RH  072%=      5-min Rain = 0
KTH1 170341Z 09004KT 21/16 A2994 RMK A01 T02070155  RH  072%=      5-min Rain = 0
KTH1 170342Z 09004KT 21/16 A2994 RMK A01 T02080156  RH  072%=      5-min Rain = 0
KTH1 170343Z 10005KT 21/16 A2994 RMK A01 T02080156  RH  072%=      5-min Rain = 0
KTH1 170344Z 10005KT 21/16 A2994 RMK A01 T02070156  RH  073%=      5-min Rain = 0
KTH1 170345Z 10004KT 21/16 A2994 RMK A01 T02070156  RH  072%=      5-min Rain = 0
KTH1 170346Z 11004KT 21/16 A2994 RMK A01 T02070155  RH  072%=      5-min Rain = 0
KTH1 170347Z 11004KT 21/16 A2994 RMK A01 T02070155  RH  072%=      5-min Rain = 0
KTH1 170348Z 11003KT 21/15 A2994 RMK A01 T02070154  RH  072%=      5-min Rain = 0
KTH1 170349Z 11004KT 21/15 A2994 RMK A01 T02070154  RH  072%=      5-min Rain = 0
KTH1 170350Z 11004KT 21/15 A2994 RMK A01 T02070154  RH  072%=      5-min Rain = 0
KTH1 170351Z 11004KT 21/15 A2994 RMK A01 T02070154  RH  072%=      5-min Rain = 0
KTH1 170352Z 12004KT 21/15 A2994 RMK A01 T02070154  RH  072%=      5-min Rain = 0
KTH1 170353Z 11004KT 21/15 A2994 RMK A01 T02070154  RH  072%=      5-min Rain = 0
KTH1 170354Z 11004KT 21/15 A2994 RMK A01 T02070154  RH  072%=      5-min Rain = 0
KTH1 170355Z 11003KT 21/15 A2994 RMK A01 T02060154  RH  072%=      5-min Rain = 0
KTH1 170356Z 10003KT 21/15 A2994 RMK A01 T02060154  RH  072%=      5-min Rain = 0
KTH1 170357Z 11003KT 21/15 A2994 RMK A01 T02060154  RH  072%=      5-min Rain = 0
KTH1 170358Z 10003KT 21/15 A2994 RMK A01 T02050154  RH  072%=      5-min Rain = 0
KTH1 170359Z 11003KT 21/15 A2994 RMK A01 T02050154  RH  072%=      5-min Rain = 0
KTH1 170400Z 11003KT 21/15 A2994 RMK A01 T02050154  RH  072%=      5-min Rain = 0
KTH1 170401Z 10004KT 21/15 A2994 RMK A01 T02060154  RH  072%=      5-min Rain = 0
KTH1 170402Z 10003KT 21/15 A2994 RMK A01 T02060154  RH  072%=      5-min Rain = 0
KTH1 170403Z 10003KT 21/15 A2994 RMK A01 T02060154  RH  072%=      5-min Rain = 0
KTH1 170404Z 10003KT 21/15 A2994 RMK A01 T02060154  RH  072%=      5-min Rain = 0
KTH1 170405Z 10003KT 21/15 A2994 RMK A01 T02060154  RH  072%=      5-min Rain = 0
KTH1 170406Z 11003KT 21/15 A2994 RMK A01 T02060154  RH  072%=      5-min Rain = 0
KTH1 170407Z 11003KT 21/15 A2994 RMK A01 T02060154  RH  072%=      5-min Rain = 0
KTH1 170408Z 11004KT 21/15 A2994 RMK A01 T02050154  RH  072%=      5-min Rain = 0
KTH1 170409Z 11003KT 21/15 A2994 RMK A01 T02050154  RH  072%=      5-min Rain = 0
KTH1 170410Z 11003KT 21/15 A2994 RMK A01 T02050154  RH  072%=      5-min Rain = 0
KTH1 170411Z 11003KT 21/15 A2994 RMK A01 T02050154  RH  072%=      5-min Rain = 0
KTH1 170412Z 10003KT 20/15 A2994 RMK A01 T02040154  RH  073%=      5-min Rain = 0
KTH1 170413Z 10004KT 20/15 A2994 RMK A01 T02040154  RH  073%=      5-min Rain = 0
KTH1 170414Z 10004KT 20/15 A2994 RMK A01 T02040154  RH  073%=      5-min Rain = 0
KTH1 170415Z 11003KT 20/15 A2994 RMK A01 T02040154  RH  073%=      5-min Rain = 0
KTH1 170416Z 11003KT 20/15 A2994 RMK A01 T02040154  RH  073%=      5-min Rain = 0
KTH1 170417Z 10003KT 20/16 A2994 RMK A01 T02040155  RH  073%=      5-min Rain = 0
KTH1 170418Z 11002KT 20/16 A2994 RMK A01 T02040155  RH  074%=      5-min Rain = 0
KTH1 170419Z 11003KT 20/16 A2994 RMK A01 T02030155  RH  074%=      5-min Rain = 0
KTH1 170420Z 10003KT 20/15 A2994 RMK A01 T02030154  RH  074%=      5-min Rain = 0
KTH1 170421Z 11003KT 20/15 A2994 RMK A01 T02020154  RH  074%=      5-min Rain = 0
KTH1 170422Z 10003KT 20/15 A2994 RMK A01 T02020154  RH  074%=      5-min Rain = 0
KTH1 170423Z 11003KT 20/16 A2994 RMK A01 T02020155  RH  074%=      5-min Rain = 0
KTH1 170424Z 11004KT 20/16 A2994 RMK A01 T02010155  RH  075%=      5-min Rain = 0
KTH1 170425Z 11004KT 20/16 A2994 RMK A01 T02010155  RH  075%=      5-min Rain = 0
KTH1 170426Z 11004KT 20/16 A2994 RMK A01 T02000155  RH  075%=      5-min Rain = 0
KTH1 170427Z 12004KT 20/16 A2994 RMK A01 T02010155  RH  075%=      5-min Rain = 0
KTH1 170428Z 12004KT 20/16 A2994 RMK A01 T02010155  RH  075%=      5-min Rain = 0
KTH1 170429Z 12004KT 20/16 A2994 RMK A01 T02010155  RH  075%=      5-min Rain = 0
KTH1 170430Z 12004KT 20/16 A2994 RMK A01 T02010155  RH  075%=      5-min Rain = 0
KTH1 170431Z 12005KT 20/16 A2994 RMK A01 T02010155  RH  075%=      5-min Rain = 0
KTH1 170432Z 12005KT 20/16 A2994 RMK A01 T02020156  RH  075%=      5-min Rain = 0
KTH1 170433Z 11005KT 20/16 A2994 RMK A01 T02020156  RH  075%=      5-min Rain = 0
KTH1 170434Z 11005KT 20/16 A2994 RMK A01 T02030156  RH  074%=      5-min Rain = 0
KTH1 170435Z 11005KT 20/16 A2994 RMK A01 T02040156  RH  074%=      5-min Rain = 0
KTH1 170436Z 11004KT 21/16 A2994 RMK A01 T02050156  RH  074%=      5-min Rain = 0
KTH1 170437Z 11005KT 20/16 A2994 RMK A01 T02040156  RH  074%=      5-min Rain = 0
KTH1 170438Z 11004KT 20/16 A2994 RMK A01 T02040157  RH  074%=      5-min Rain = 0
KTH1 170439Z 11004KT 20/16 A2994 RMK A01 T02040157  RH  074%=      5-min Rain = 0
KTH1 170440Z 11004KT 20/16 A2994 RMK A01 T02040156  RH  074%=      5-min Rain = 0
KTH1 170441Z 11004KT 20/16 A2995 RMK A01 T02030156  RH  074%=      5-min Rain = 0
KTH1 170442Z 11003KT 20/16 A2995 RMK A01 T02020156  RH  075%=      5-min Rain = 0
KTH1 170443Z 11003KT 20/16 A2995 RMK A01 T02020156  RH  075%=      5-min Rain = 0
KTH1 170444Z 11004KT 20/16 A2995 RMK A01 T02010156  RH  075%=      5-min Rain = 0
KTH1 170445Z 13003KT 20/16 A2995 RMK A01 T02010156  RH  075%=      5-min Rain = 0
KTH1 170446Z 13003KT 20/16 A2995 RMK A01 T02010156  RH  075%=      5-min Rain = 0
KTH1 170447Z 13003KT 20/16 A2994 RMK A01 T02010156  RH  075%=      5-min Rain = 0
KTH1 170448Z 14003KT 20/16 A2994 RMK A01 T02000155  RH  076%=      5-min Rain = 0
KTH1 170449Z 15003KT 20/16 A2994 RMK A01 T02000156  RH  076%=      5-min Rain = 0
KTH1 170450Z 15004KT 20/16 A2994 RMK A01 T01990155  RH  076%=      5-min Rain = 0
KTH1 170451Z 15004KT 20/16 A2994 RMK A01 T01990155  RH  076%=      5-min Rain = 0
KTH1 170452Z 15004KT 20/16 A2994 RMK A01 T01980155  RH  076%=      5-min Rain = 0
KTH1 170453Z 14004KT 20/16 A2994 RMK A01 T01980155  RH  076%=      5-min Rain = 0
KTH1 170454Z 15003KT 20/16 A2994 RMK A01 T01970155  RH  077%=      5-min Rain = 0
KTH1 170455Z 14003KT 20/16 A2994 RMK A01 T01960155  RH  077%=      5-min Rain = 0
KTH1 170456Z 14004KT 20/16 A2994 RMK A01 T01960155  RH  077%=      5-min Rain = 0
KTH1 170457Z 14003KT 20/16 A2994 RMK A01 T01950155  RH  077%=      5-min Rain = 0
KTH1 170458Z 14004KT 20/16 A2994 RMK A01 T01950155  RH  078%=      5-min Rain = 0
KTH1 170459Z 14004KT 20/16 A2994 RMK A01 T01950155  RH  078%=      5-min Rain = 0

Page generated in 0.2359 seconds.